GEC8255 SBRF-EDDF
Flight info
| Callsign | GEC8255 |
|---|---|
| Flight time | 8h 45m |
| Altitude | 29000 |
| Route | FNR UN857 KOPDU/N0508F310 UN857 GUNET N857 BIPET/N0491F330 N857 DEREV/N0493F320 N857 LZR N871 KORAL UG5 SONSO UN871 OSDAM/N0485F340 UN871 ADUBI N871 VJF L27 MAR N871 TOPTU DCT GAI DCT NOQAS DCT MURRO T544 LSE/N0477F350 DCT BELUS/N0479F340 DCT OMASI N871 KORED/N0478F350 DCT LADOL/N0480F340 T163 EMPAX EMPAX5D |
| Aircraft | B77L/H-SDE1E2E3FGHIJ2J3J4J5M1RWXY/LB1D1 |
Departure
| Time | 2026-04-11 07:08 |
|---|---|
| Airport | Recife/Guararapes - Gilberto Freyre International Airport (SBRF) |
Arrival
| Time | 2026-04-11 15:53 |
|---|---|
| Airport | Frankfurt Main Airport (EDDF) |
| Time | Latitude | Longitude | Altitude | Speed | Heading |
|---|---|---|---|---|---|
| 2026-04-11 06:41 | -8.12790 | -34.91876 | 42 ft | 0 kts | 124° |
| 2026-04-11 06:58 | -8.12788 | -34.91878 | 42 ft | 2 kts | 124° |
| 2026-04-11 06:58 | -8.12774 | -34.91900 | 41 ft | 4 kts | 124° |
| 2026-04-11 06:58 | -8.12760 | -34.91920 | 40 ft | 3 kts | 124° |
| 2026-04-11 06:59 | -8.12743 | -34.91937 | 42 ft | 4 kts | 171° |
| 2026-04-11 06:59 | -8.12721 | -34.91931 | 42 ft | 4 kts | 216° |
| 2026-04-11 06:59 | -8.12708 | -34.91922 | 40 ft | 1 kts | 214° |
| 2026-04-11 06:59 | -8.12706 | -34.91921 | 42 ft | 0 kts | 214° |
| 2026-04-11 07:02 | -8.12738 | -34.91943 | 42 ft | 9 kts | 215° |
| 2026-04-11 07:02 | -8.12792 | -34.91981 | 42 ft | 9 kts | 214° |
| 2026-04-11 07:02 | -8.12845 | -34.92017 | 42 ft | 9 kts | 213° |
| 2026-04-11 07:02 | -8.12876 | -34.92066 | 42 ft | 9 kts | 281° |
| 2026-04-11 07:03 | -8.12827 | -34.92103 | 42 ft | 9 kts | 338° |
| 2026-04-11 07:03 | -8.12768 | -34.92124 | 42 ft | 9 kts | 342° |
| 2026-04-11 07:03 | -8.12708 | -34.92143 | 42 ft | 9 kts | 342° |
| 2026-04-11 07:03 | -8.12636 | -34.92167 | 42 ft | 14 kts | 342° |
| 2026-04-11 07:04 | -8.12544 | -34.92197 | 42 ft | 14 kts | 341° |
| 2026-04-11 07:04 | -8.12453 | -34.92227 | 42 ft | 14 kts | 341° |
| 2026-04-11 07:04 | -8.12362 | -34.92258 | 42 ft | 14 kts | 342° |
| 2026-04-11 07:04 | -8.12270 | -34.92287 | 42 ft | 14 kts | 342° |
| 2026-04-11 07:05 | -8.12179 | -34.92318 | 42 ft | 14 kts | 341° |
| 2026-04-11 07:05 | -8.12088 | -34.92348 | 41 ft | 14 kts | 342° |
| 2026-04-11 07:05 | -8.11996 | -34.92378 | 41 ft | 14 kts | 342° |
| 2026-04-11 07:05 | -8.11905 | -34.92407 | 39 ft | 14 kts | 342° |
| 2026-04-11 07:06 | -8.11814 | -34.92438 | 41 ft | 14 kts | 341° |
| 2026-04-11 07:06 | -8.11722 | -34.92468 | 41 ft | 14 kts | 342° |
| 2026-04-11 07:06 | -8.11632 | -34.92500 | 41 ft | 14 kts | 334° |
| 2026-04-11 07:06 | -8.11555 | -34.92556 | 41 ft | 14 kts | 319° |
| 2026-04-11 07:07 | -8.11483 | -34.92618 | 40 ft | 10 kts | 319° |
| 2026-04-11 07:07 | -8.11447 | -34.92662 | 41 ft | 8 kts | 289° |
| 2026-04-11 07:07 | -8.11478 | -34.92699 | 41 ft | 8 kts | 182° |
| 2026-04-11 07:07 | -8.11533 | -34.92681 | 41 ft | 10 kts | 161° |
| 2026-04-11 07:08 | -8.11762 | -34.92607 | 40 ft | 74 kts | 162° |
| 2026-04-11 07:08 | -8.12564 | -34.92342 | 45 ft | 166 kts | 162° |
| 2026-04-11 07:08 | -8.13825 | -34.91916 | 520 ft | 197 kts | 162° |
| 2026-04-11 07:08 | -8.15095 | -34.91479 | 1716 ft | 192 kts | 161° |
| 2026-04-11 07:09 | -8.16361 | -34.91024 | 2645 ft | 193 kts | 161° |
| 2026-04-11 07:09 | -8.17669 | -34.90564 | 3053 ft | 209 kts | 163° |
| 2026-04-11 07:09 | -8.19113 | -34.90123 | 3446 ft | 223 kts | 163° |
| 2026-04-11 07:09 | -8.20524 | -34.89436 | 3835 ft | 232 kts | 136° |
| 2026-04-11 07:10 | -8.21122 | -34.86310 | 4888 ft | 254 kts | 69° |
| 2026-04-11 07:10 | -8.20215 | -34.84732 | 4932 ft | 267 kts | 55° |
| 2026-04-11 07:10 | -8.19044 | -34.83232 | 4951 ft | 276 kts | 52° |
| 2026-04-11 07:11 | -8.17809 | -34.81715 | 4967 ft | 283 kts | 52° |
| 2026-04-11 07:11 | -8.16561 | -34.80172 | 4970 ft | 285 kts | 52° |
| 2026-04-11 07:11 | -8.15319 | -34.78614 | 4962 ft | 282 kts | 52° |
| 2026-04-11 07:11 | -8.14093 | -34.77068 | 4963 ft | 282 kts | 53° |
| 2026-04-11 07:12 | -8.12879 | -34.75517 | 4955 ft | 281 kts | 53° |
| 2026-04-11 07:12 | -8.11668 | -34.73967 | 4963 ft | 284 kts | 53° |
| 2026-04-11 07:12 | -8.10451 | -34.72403 | 4969 ft | 283 kts | 53° |
| 2026-04-11 07:12 | -8.09238 | -34.70843 | 4967 ft | 282 kts | 53° |
| 2026-04-11 07:13 | -8.08037 | -34.69274 | 4956 ft | 282 kts | 54° |
| 2026-04-11 07:13 | -8.06855 | -34.67687 | 5076 ft | 283 kts | 54° |
| 2026-04-11 07:13 | -8.05709 | -34.66117 | 5415 ft | 281 kts | 54° |
| 2026-04-11 07:13 | -8.04532 | -34.64537 | 5898 ft | 283 kts | 54° |
| 2026-04-11 07:14 | -8.03330 | -34.62936 | 6407 ft | 288 kts | 54° |
| 2026-04-11 07:14 | -8.02111 | -34.61315 | 6923 ft | 292 kts | 54° |
| 2026-04-11 07:14 | -8.00876 | -34.59666 | 7410 ft | 295 kts | 54° |
| 2026-04-11 07:14 | -7.99635 | -34.58005 | 7927 ft | 298 kts | 53° |
| 2026-04-11 07:15 | -7.98386 | -34.56335 | 8430 ft | 300 kts | 53° |
| 2026-04-11 07:15 | -7.97124 | -34.54650 | 9156 ft | 302 kts | 53° |
| 2026-04-11 07:15 | -7.95852 | -34.52945 | 9970 ft | 306 kts | 53° |
| 2026-04-11 07:15 | -7.94561 | -34.51224 | 10752 ft | 308 kts | 51° |
| 2026-04-11 07:16 | -7.92981 | -34.49765 | 11268 ft | 315 kts | 30° |
| 2026-04-11 07:16 | -7.90972 | -34.48738 | 11486 ft | 336 kts | 26° |
| 2026-04-11 07:16 | -7.88794 | -34.47659 | 11671 ft | 359 kts | 26° |
| 2026-04-11 07:16 | -7.86484 | -34.46505 | 11922 ft | 380 kts | 26° |
| 2026-04-11 07:17 | -7.84083 | -34.45295 | 12478 ft | 391 kts | 27° |
| 2026-04-11 07:17 | -7.81634 | -34.44054 | 13133 ft | 397 kts | 27° |
| 2026-04-11 07:17 | -7.79156 | -34.42799 | 13860 ft | 400 kts | 27° |
| 2026-04-11 07:17 | -7.76659 | -34.41528 | 14600 ft | 403 kts | 27° |
| 2026-04-11 07:18 | -7.74141 | -34.40248 | 15295 ft | 408 kts | 27° |
| 2026-04-11 07:18 | -7.71598 | -34.38944 | 15942 ft | 413 kts | 27° |
| 2026-04-11 07:18 | -7.69023 | -34.37624 | 16563 ft | 417 kts | 27° |
| 2026-04-11 07:18 | -7.66422 | -34.36293 | 17172 ft | 422 kts | 27° |
| 2026-04-11 07:19 | -7.63791 | -34.34948 | 17765 ft | 426 kts | 27° |
| 2026-04-11 07:19 | -7.61130 | -34.33588 | 18328 ft | 431 kts | 27° |
| 2026-04-11 07:19 | -7.58445 | -34.32214 | 18943 ft | 434 kts | 27° |
| 2026-04-11 07:19 | -7.55742 | -34.30828 | 19534 ft | 437 kts | 27° |
| 2026-04-11 07:20 | -7.53022 | -34.29434 | 20088 ft | 440 kts | 27° |
| 2026-04-11 07:20 | -7.50279 | -34.28030 | 20598 ft | 444 kts | 27° |
| 2026-04-11 07:20 | -7.47513 | -34.26614 | 21096 ft | 448 kts | 26° |
| 2026-04-11 07:20 | -7.44723 | -34.25188 | 21585 ft | 451 kts | 26° |
| 2026-04-11 07:21 | -7.41916 | -34.23754 | 22084 ft | 454 kts | 26° |
| 2026-04-11 07:21 | -7.39092 | -34.22310 | 22561 ft | 457 kts | 26° |
| 2026-04-11 07:21 | -7.36242 | -34.20856 | 23039 ft | 460 kts | 26° |
| 2026-04-11 07:21 | -7.33381 | -34.19385 | 23481 ft | 464 kts | 26° |
| 2026-04-11 07:22 | -7.30496 | -34.17911 | 23927 ft | 466 kts | 26° |
| 2026-04-11 07:22 | -7.27594 | -34.16432 | 24354 ft | 469 kts | 26° |
| 2026-04-11 07:22 | -7.24673 | -34.14942 | 24774 ft | 471 kts | 26° |
| 2026-04-11 07:22 | -7.21742 | -34.13447 | 25146 ft | 474 kts | 26° |
| 2026-04-11 07:23 | -7.18792 | -34.11940 | 25529 ft | 477 kts | 26° |
| 2026-04-11 07:23 | -7.15826 | -34.10423 | 25929 ft | 479 kts | 26° |
| 2026-04-11 07:23 | -7.12845 | -34.08899 | 26333 ft | 481 kts | 26° |
| 2026-04-11 07:23 | -7.09853 | -34.07372 | 26717 ft | 483 kts | 26° |
| 2026-04-11 07:24 | -7.06844 | -34.05835 | 27081 ft | 486 kts | 26° |
| 2026-04-11 07:24 | -7.03823 | -34.04292 | 27465 ft | 488 kts | 26° |
| 2026-04-11 07:24 | -7.00790 | -34.02747 | 27831 ft | 490 kts | 25° |
| 2026-04-11 07:24 | -6.97744 | -34.01196 | 28171 ft | 492 kts | 25° |
| 2026-04-11 07:25 | -6.94685 | -33.99637 | 28491 ft | 494 kts | 26° |
| 2026-04-11 07:25 | -6.91616 | -33.98071 | 28819 ft | 496 kts | 26° |
| 2026-04-11 07:25 | -6.85461 | -33.94930 | 28979 ft | 502 kts | 26° |
| 2026-04-11 07:26 | -6.79204 | -33.91742 | 28968 ft | 503 kts | 26° |
| 2026-04-11 07:26 | -6.72971 | -33.88562 | 28948 ft | 502 kts | 26° |
| 2026-04-11 07:27 | -6.66738 | -33.85383 | 28961 ft | 503 kts | 26° |
| 2026-04-11 07:27 | -6.60487 | -33.82200 | 28952 ft | 504 kts | 26° |
| 2026-04-11 07:28 | -6.54224 | -33.79012 | 28964 ft | 506 kts | 26° |
| 2026-04-11 07:28 | -6.48968 | -33.76334 | 28949 ft | 506 kts | 26° |
| 2026-04-11 07:29 | -6.42689 | -33.73143 | 28949 ft | 506 kts | 26° |
| 2026-04-11 07:29 | -6.36408 | -33.69947 | 28952 ft | 506 kts | 26° |
| 2026-04-11 07:30 | -6.30136 | -33.66758 | 28949 ft | 505 kts | 26° |
| 2026-04-11 07:30 | -6.23869 | -33.63570 | 28960 ft | 505 kts | 26° |
| 2026-04-11 07:31 | -6.17609 | -33.60387 | 28948 ft | 504 kts | 26° |
| 2026-04-11 07:31 | -6.11345 | -33.57202 | 28949 ft | 505 kts | 26° |
| 2026-04-11 07:32 | -6.05079 | -33.54020 | 28960 ft | 504 kts | 26° |
| 2026-04-11 07:32 | -5.98859 | -33.50856 | 28952 ft | 504 kts | 26° |
| 2026-04-11 07:33 | -5.92556 | -33.47654 | 28950 ft | 504 kts | 26° |
| 2026-04-11 07:33 | -5.86332 | -33.44501 | 28950 ft | 505 kts | 26° |
| 2026-04-11 07:34 | -5.80026 | -33.41296 | 28953 ft | 505 kts | 26° |
| 2026-04-11 07:34 | -5.73763 | -33.38116 | 28951 ft | 504 kts | 26° |
| 2026-04-11 07:35 | -5.67537 | -33.34955 | 28940 ft | 504 kts | 26° |
| 2026-04-11 07:35 | -5.61232 | -33.31758 | 28945 ft | 504 kts | 26° |
| 2026-04-11 07:36 | -5.54965 | -33.28580 | 28945 ft | 504 kts | 26° |
| 2026-04-11 07:36 | -5.48702 | -33.25404 | 28944 ft | 504 kts | 26° |
| 2026-04-11 07:37 | -5.42442 | -33.22234 | 28943 ft | 504 kts | 26° |
| 2026-04-11 07:37 | -5.36181 | -33.19062 | 28946 ft | 504 kts | 26° |
| 2026-04-11 07:38 | -5.29925 | -33.15893 | 28942 ft | 504 kts | 26° |
| 2026-04-11 07:38 | -5.23654 | -33.12722 | 28948 ft | 506 kts | 27° |
| 2026-04-11 07:39 | -5.17372 | -33.09538 | 28945 ft | 506 kts | 26° |
| 2026-04-11 07:39 | -5.11133 | -33.06376 | 28943 ft | 506 kts | 27° |
| 2026-04-11 07:40 | -5.04819 | -33.03180 | 28944 ft | 505 kts | 26° |
| 2026-04-11 07:40 | -4.98592 | -33.00032 | 28942 ft | 504 kts | 27° |
| 2026-04-11 07:41 | -4.92335 | -32.96864 | 28947 ft | 504 kts | 27° |
| 2026-04-11 07:41 | -4.86068 | -32.93693 | 28938 ft | 505 kts | 27° |
| 2026-04-11 07:42 | -4.79796 | -32.90521 | 28934 ft | 505 kts | 27° |
| 2026-04-11 07:43 | -4.70380 | -32.85759 | 28935 ft | 505 kts | 27° |
| 2026-04-11 07:43 | -4.64102 | -32.82584 | 28936 ft | 505 kts | 27° |
| 2026-04-11 07:44 | -4.57835 | -32.79421 | 28937 ft | 504 kts | 27° |
| 2026-04-11 07:44 | -4.51562 | -32.76251 | 28937 ft | 505 kts | 27° |
| 2026-04-11 07:45 | -4.45277 | -32.73069 | 28937 ft | 507 kts | 27° |
| 2026-04-11 07:45 | -4.38979 | -32.69891 | 28936 ft | 507 kts | 27° |
| 2026-04-11 07:46 | -4.32678 | -32.66711 | 28935 ft | 507 kts | 27° |
| 2026-04-11 07:46 | -4.26379 | -32.63531 | 28936 ft | 506 kts | 27° |
| 2026-04-11 07:47 | -4.20113 | -32.60306 | 28944 ft | 504 kts | 26° |
| 2026-04-11 07:47 | -4.13790 | -32.57219 | 28935 ft | 505 kts | 27° |
| 2026-04-11 07:48 | -4.07545 | -32.54044 | 28926 ft | 503 kts | 27° |
| 2026-04-11 07:48 | -4.01310 | -32.50874 | 28941 ft | 502 kts | 27° |
| 2026-04-11 07:49 | -3.95059 | -32.47720 | 28929 ft | 504 kts | 27° |
| 2026-04-11 07:49 | -3.88747 | -32.44535 | 28935 ft | 505 kts | 27° |
| 2026-04-11 07:50 | -3.82517 | -32.41362 | 28941 ft | 507 kts | 27° |
| 2026-04-11 07:50 | -3.76244 | -32.38041 | 28935 ft | 507 kts | 28° |
| 2026-04-11 07:51 | -3.70026 | -32.34727 | 28933 ft | 506 kts | 28° |
| 2026-04-11 07:51 | -3.63846 | -32.31454 | 28936 ft | 506 kts | 28° |
| 2026-04-11 07:52 | -3.57621 | -32.28166 | 28934 ft | 505 kts | 28° |
| 2026-04-11 07:52 | -3.51401 | -32.24883 | 28935 ft | 505 kts | 28° |
| 2026-04-11 07:53 | -3.45190 | -32.21601 | 28933 ft | 504 kts | 28° |
| 2026-04-11 07:53 | -3.38981 | -32.18321 | 28936 ft | 505 kts | 28° |
| 2026-04-11 07:54 | -3.32726 | -32.15018 | 28936 ft | 505 kts | 28° |
| 2026-04-11 07:54 | -3.26549 | -32.11759 | 28936 ft | 505 kts | 28° |
| 2026-04-11 07:55 | -3.20312 | -32.08515 | 28943 ft | 506 kts | 27° |
| 2026-04-11 07:55 | -3.14009 | -32.05270 | 28945 ft | 506 kts | 27° |
| 2026-04-11 07:56 | -3.07762 | -32.02042 | 28945 ft | 505 kts | 27° |
| 2026-04-11 07:56 | -3.01514 | -31.98809 | 28946 ft | 505 kts | 28° |
| 2026-04-11 07:57 | -2.95278 | -31.95585 | 28944 ft | 504 kts | 28° |
| 2026-04-11 07:57 | -2.89049 | -31.92364 | 28943 ft | 504 kts | 28° |
| 2026-04-11 07:58 | -2.82823 | -31.89148 | 28944 ft | 503 kts | 28° |
| 2026-04-11 07:58 | -2.76611 | -31.85930 | 28943 ft | 503 kts | 28° |
| 2026-04-11 07:59 | -2.70400 | -31.82716 | 28945 ft | 502 kts | 28° |
| 2026-04-11 07:59 | -2.64193 | -31.79507 | 28947 ft | 502 kts | 28° |
| 2026-04-11 08:00 | -2.57984 | -31.76295 | 28943 ft | 502 kts | 28° |
| 2026-04-11 08:00 | -2.51821 | -31.73109 | 28945 ft | 502 kts | 28° |
| 2026-04-11 08:01 | -2.45564 | -31.69877 | 28943 ft | 502 kts | 28° |
| 2026-04-11 08:01 | -2.39398 | -31.66688 | 28947 ft | 502 kts | 28° |
| 2026-04-11 08:02 | -2.33153 | -31.63460 | 28941 ft | 501 kts | 28° |
| 2026-04-11 08:02 | -2.26950 | -31.60254 | 28945 ft | 502 kts | 28° |
| 2026-04-11 08:03 | -2.20780 | -31.57066 | 28948 ft | 503 kts | 28° |
| 2026-04-11 08:03 | -2.14556 | -31.53851 | 28944 ft | 504 kts | 28° |
| 2026-04-11 08:04 | -2.08332 | -31.50633 | 28943 ft | 503 kts | 28° |
| 2026-04-11 08:04 | -2.02110 | -31.47422 | 28950 ft | 504 kts | 28° |
| 2026-04-11 08:05 | -1.95887 | -31.44208 | 28944 ft | 503 kts | 28° |
| 2026-04-11 08:05 | -1.89676 | -31.40998 | 28944 ft | 502 kts | 28° |
| 2026-04-11 08:06 | -1.83477 | -31.37794 | 28944 ft | 502 kts | 28° |
| 2026-04-11 08:06 | -1.77272 | -31.34593 | 28944 ft | 502 kts | 28° |
| 2026-04-11 08:07 | -1.71081 | -31.31394 | 28944 ft | 501 kts | 28° |
| 2026-04-11 08:07 | -1.64887 | -31.28200 | 28947 ft | 501 kts | 28° |
| 2026-04-11 08:08 | -1.55595 | -31.23399 | 28944 ft | 501 kts | 28° |
| 2026-04-11 08:08 | -1.49394 | -31.20199 | 28944 ft | 502 kts | 28° |
| 2026-04-11 08:09 | -1.43184 | -31.17002 | 28943 ft | 502 kts | 28° |
| 2026-04-11 08:09 | -1.36974 | -31.13791 | 28947 ft | 502 kts | 28° |
| 2026-04-11 08:10 | -1.31817 | -31.11125 | 28943 ft | 502 kts | 28° |
| 2026-04-11 08:10 | -1.25613 | -31.07925 | 28942 ft | 501 kts | 28° |
| 2026-04-11 08:11 | -1.19420 | -31.04724 | 28947 ft | 501 kts | 28° |
| 2026-04-11 08:11 | -1.13225 | -31.01530 | 28944 ft | 501 kts | 28° |
| 2026-04-11 08:12 | -1.07028 | -30.98333 | 28944 ft | 501 kts | 28° |
| 2026-04-11 08:12 | -1.00834 | -30.95132 | 28947 ft | 501 kts | 28° |
| 2026-04-11 08:13 | -0.94623 | -30.91931 | 28946 ft | 503 kts | 28° |
| 2026-04-11 08:13 | -0.88405 | -30.88718 | 28947 ft | 503 kts | 28° |
| 2026-04-11 08:14 | -0.82179 | -30.85502 | 28994 ft | 506 kts | 28° |
| 2026-04-11 08:14 | -0.79053 | -30.83887 | 29267 ft | 506 kts | 28° |
| 2026-04-11 08:14 | -0.75933 | -30.82276 | 29674 ft | 504 kts | 28° |
| 2026-04-11 08:15 | -0.72827 | -30.80668 | 30128 ft | 501 kts | 28° |
| 2026-04-11 08:15 | -0.69744 | -30.79075 | 30564 ft | 498 kts | 28° |
| 2026-04-11 08:15 | -0.66670 | -30.77488 | 30953 ft | 497 kts | 28° |
| 2026-04-11 08:15 | -0.63588 | -30.75898 | 30927 ft | 499 kts | 28° |
| 2026-04-11 08:16 | -0.57428 | -30.72716 | 30934 ft | 497 kts | 28° |
| 2026-04-11 08:16 | -0.51299 | -30.69545 | 30949 ft | 495 kts | 28° |
| 2026-04-11 08:17 | -0.45180 | -30.66383 | 30946 ft | 495 kts | 28° |
| 2026-04-11 08:17 | -0.39058 | -30.63218 | 30949 ft | 496 kts | 28° |
| 2026-04-11 08:18 | -0.32927 | -30.60051 | 30942 ft | 496 kts | 28° |
| 2026-04-11 08:18 | -0.26795 | -30.56881 | 30949 ft | 496 kts | 28° |
| 2026-04-11 08:19 | -0.20654 | -30.53711 | 30948 ft | 497 kts | 28° |
| 2026-04-11 08:19 | -0.14507 | -30.50534 | 30945 ft | 497 kts | 28° |
| 2026-04-11 08:20 | -0.08361 | -30.47352 | 30951 ft | 498 kts | 28° |
| 2026-04-11 08:20 | -0.02203 | -30.44168 | 30957 ft | 499 kts | 28° |
| 2026-04-11 08:21 | 0.03962 | -30.40989 | 30951 ft | 498 kts | 28° |
| 2026-04-11 08:21 | 0.10130 | -30.37804 | 30954 ft | 499 kts | 28° |
| 2026-04-11 08:22 | 0.16291 | -30.34615 | 30953 ft | 499 kts | 28° |
| 2026-04-11 08:22 | 0.22457 | -30.31431 | 30955 ft | 499 kts | 28° |
| 2026-04-11 08:23 | 0.28625 | -30.28245 | 30954 ft | 499 kts | 28° |
| 2026-04-11 08:23 | 0.34787 | -30.25053 | 30954 ft | 499 kts | 28° |
| 2026-04-11 08:24 | 0.40956 | -30.21861 | 30956 ft | 500 kts | 28° |
| 2026-04-11 08:24 | 0.47122 | -30.18675 | 30949 ft | 498 kts | 28° |
| 2026-04-11 08:25 | 0.53280 | -30.15486 | 30957 ft | 499 kts | 28° |
| 2026-04-11 08:25 | 0.59454 | -30.12291 | 30951 ft | 500 kts | 28° |
| 2026-04-11 08:26 | 0.65636 | -30.09088 | 30955 ft | 501 kts | 28° |
| 2026-04-11 08:26 | 0.71830 | -30.05884 | 30951 ft | 501 kts | 28° |
| 2026-04-11 08:27 | 0.78025 | -30.02677 | 30955 ft | 502 kts | 28° |
| 2026-04-11 08:27 | 0.84226 | -29.99466 | 30954 ft | 503 kts | 28° |
| 2026-04-11 08:28 | 0.90439 | -29.96249 | 30953 ft | 503 kts | 28° |
| 2026-04-11 08:28 | 0.96665 | -29.93030 | 30956 ft | 504 kts | 28° |
| 2026-04-11 08:29 | 1.02893 | -29.89807 | 30957 ft | 504 kts | 28° |
| 2026-04-11 08:29 | 1.09128 | -29.86578 | 30952 ft | 504 kts | 28° |
| 2026-04-11 08:30 | 1.15361 | -29.83349 | 30955 ft | 505 kts | 28° |
| 2026-04-11 08:30 | 1.21597 | -29.80124 | 30954 ft | 505 kts | 28° |
| 2026-04-11 08:31 | 1.27783 | -29.76916 | 30952 ft | 504 kts | 28° |
| 2026-04-11 08:31 | 1.34025 | -29.73685 | 30957 ft | 506 kts | 28° |
| 2026-04-11 08:32 | 1.40328 | -29.70425 | 30954 ft | 508 kts | 28° |
| 2026-04-11 08:32 | 1.46590 | -29.67145 | 30956 ft | 509 kts | 29° |
| 2026-04-11 08:33 | 1.52869 | -29.63855 | 30953 ft | 510 kts | 29° |
| 2026-04-11 08:33 | 1.59147 | -29.60566 | 30953 ft | 509 kts | 29° |
| 2026-04-11 08:34 | 1.65376 | -29.57299 | 30958 ft | 507 kts | 29° |
| 2026-04-11 08:34 | 1.71639 | -29.54016 | 30948 ft | 509 kts | 28° |
| 2026-04-11 08:35 | 1.77893 | -29.50731 | 30955 ft | 502 kts | 30° |
| 2026-04-11 08:35 | 1.84103 | -29.47467 | 30967 ft | 509 kts | 27° |
| 2026-04-11 08:36 | 1.90423 | -29.44236 | 30961 ft | 511 kts | 29° |
| 2026-04-11 08:36 | 1.96711 | -29.40916 | 30956 ft | 511 kts | 29° |
| 2026-04-11 08:37 | 2.02993 | -29.37595 | 30953 ft | 510 kts | 29° |
| 2026-04-11 08:37 | 2.09281 | -29.34290 | 30972 ft | 511 kts | 30° |
| 2026-04-11 08:38 | 2.15599 | -29.31026 | 30967 ft | 511 kts | 28° |
| 2026-04-11 08:38 | 2.21893 | -29.27720 | 30963 ft | 511 kts | 29° |
| 2026-04-11 08:39 | 2.28182 | -29.24398 | 30965 ft | 511 kts | 29° |
| 2026-04-11 08:39 | 2.34480 | -29.21089 | 30963 ft | 512 kts | 29° |
| 2026-04-11 08:40 | 2.40787 | -29.17789 | 30963 ft | 511 kts | 29° |
| 2026-04-11 08:40 | 2.47092 | -29.14482 | 30963 ft | 512 kts | 29° |
| 2026-04-11 08:41 | 2.53397 | -29.11176 | 30963 ft | 512 kts | 29° |
| 2026-04-11 08:41 | 2.59698 | -29.07870 | 30963 ft | 512 kts | 29° |
| 2026-04-11 08:42 | 2.66001 | -29.04563 | 30964 ft | 512 kts | 29° |
| 2026-04-11 08:43 | 2.75467 | -28.99595 | 30963 ft | 513 kts | 29° |
| 2026-04-11 08:43 | 2.81783 | -28.96286 | 30963 ft | 513 kts | 29° |
| 2026-04-11 08:44 | 2.88100 | -28.92970 | 30963 ft | 513 kts | 29° |
| 2026-04-11 08:44 | 2.94411 | -28.89654 | 30961 ft | 512 kts | 29° |
| 2026-04-11 08:45 | 3.00728 | -28.86339 | 30962 ft | 514 kts | 29° |
| 2026-04-11 08:45 | 3.07055 | -28.83020 | 30963 ft | 514 kts | 29° |
| 2026-04-11 08:46 | 3.13388 | -28.79691 | 30964 ft | 515 kts | 29° |
| 2026-04-11 08:46 | 3.19738 | -28.76369 | 30963 ft | 515 kts | 29° |
| 2026-04-11 08:47 | 3.26089 | -28.73058 | 30973 ft | 515 kts | 30° |
| 2026-04-11 08:47 | 3.32439 | -28.69739 | 30970 ft | 515 kts | 30° |
| 2026-04-11 08:48 | 3.38784 | -28.66419 | 30973 ft | 515 kts | 30° |
| 2026-04-11 08:48 | 3.45135 | -28.63092 | 30974 ft | 516 kts | 30° |
| 2026-04-11 08:49 | 3.51495 | -28.59764 | 30973 ft | 516 kts | 30° |
| 2026-04-11 08:49 | 3.57854 | -28.56438 | 30972 ft | 515 kts | 30° |
| 2026-04-11 08:50 | 3.64200 | -28.53118 | 30971 ft | 515 kts | 30° |
| 2026-04-11 08:50 | 3.70537 | -28.49794 | 30971 ft | 514 kts | 30° |
| 2026-04-11 08:51 | 3.76877 | -28.46470 | 30977 ft | 515 kts | 30° |
| 2026-04-11 08:51 | 3.83241 | -28.43141 | 30970 ft | 517 kts | 30° |
| 2026-04-11 08:52 | 3.92806 | -28.38136 | 30971 ft | 517 kts | 30° |
| 2026-04-11 08:52 | 3.99185 | -28.34794 | 30972 ft | 517 kts | 30° |
| 2026-04-11 08:53 | 4.04474 | -28.32020 | 30977 ft | 517 kts | 30° |
| 2026-04-11 08:53 | 4.10839 | -28.28686 | 30968 ft | 516 kts | 30° |
| 2026-04-11 08:54 | 4.17203 | -28.25351 | 30972 ft | 516 kts | 30° |
| 2026-04-11 08:54 | 4.23570 | -28.22012 | 30980 ft | 517 kts | 30° |
| 2026-04-11 08:55 | 4.29941 | -28.18671 | 30983 ft | 517 kts | 30° |
| 2026-04-11 08:55 | 4.36316 | -28.15324 | 30985 ft | 518 kts | 30° |
| 2026-04-11 08:56 | 4.42694 | -28.11985 | 30977 ft | 517 kts | 30° |
| 2026-04-11 08:56 | 4.49061 | -28.08643 | 30981 ft | 516 kts | 30° |
| 2026-04-11 08:57 | 4.55429 | -28.05300 | 30982 ft | 517 kts | 30° |
| 2026-04-11 08:57 | 4.61813 | -28.01955 | 30983 ft | 518 kts | 30° |
| 2026-04-11 08:58 | 4.68228 | -27.98619 | 30996 ft | 519 kts | 28° |
| 2026-04-11 08:58 | 4.74641 | -27.95301 | 30983 ft | 518 kts | 30° |
| 2026-04-11 08:59 | 4.81012 | -27.91899 | 30988 ft | 519 kts | 30° |
| 2026-04-11 08:59 | 4.87394 | -27.88512 | 30979 ft | 519 kts | 30° |
| 2026-04-11 09:00 | 4.93790 | -27.85146 | 30987 ft | 519 kts | 30° |
| 2026-04-11 09:00 | 5.00185 | -27.81790 | 30977 ft | 519 kts | 30° |
| 2026-04-11 09:01 | 5.06591 | -27.78424 | 30984 ft | 520 kts | 30° |
| 2026-04-11 09:01 | 5.13006 | -27.75051 | 30983 ft | 522 kts | 30° |
| 2026-04-11 09:02 | 5.19444 | -27.71667 | 30988 ft | 522 kts | 30° |
| 2026-04-11 09:02 | 5.25881 | -27.68281 | 30991 ft | 523 kts | 30° |
| 2026-04-11 09:03 | 5.32323 | -27.64889 | 30990 ft | 523 kts | 30° |
| 2026-04-11 09:03 | 5.38767 | -27.61499 | 30990 ft | 523 kts | 30° |
| 2026-04-11 09:04 | 5.45209 | -27.58106 | 30989 ft | 523 kts | 30° |
| 2026-04-11 09:04 | 5.51655 | -27.54716 | 30988 ft | 523 kts | 30° |
| 2026-04-11 09:05 | 5.58100 | -27.51320 | 30991 ft | 523 kts | 30° |
| 2026-04-11 09:05 | 5.64548 | -27.47923 | 30989 ft | 523 kts | 30° |
| 2026-04-11 09:06 | 5.70993 | -27.44528 | 30991 ft | 523 kts | 30° |
| 2026-04-11 09:06 | 5.77434 | -27.41129 | 30988 ft | 523 kts | 30° |
| 2026-04-11 09:07 | 5.83881 | -27.37736 | 30989 ft | 523 kts | 30° |
| 2026-04-11 09:07 | 5.90326 | -27.34334 | 30993 ft | 523 kts | 30° |
| 2026-04-11 09:08 | 5.96780 | -27.30936 | 31005 ft | 524 kts | 30° |
| 2026-04-11 09:08 | 6.03189 | -27.27552 | 30998 ft | 524 kts | 30° |
| 2026-04-11 09:09 | 6.09685 | -27.24117 | 31001 ft | 525 kts | 30° |
| 2026-04-11 09:09 | 6.16154 | -27.20702 | 31002 ft | 526 kts | 30° |
| 2026-04-11 09:10 | 6.22644 | -27.17275 | 31003 ft | 527 kts | 30° |
| 2026-04-11 09:10 | 6.29136 | -27.13846 | 31001 ft | 527 kts | 30° |
| 2026-04-11 09:11 | 6.35630 | -27.10416 | 30995 ft | 527 kts | 30° |
| 2026-04-11 09:11 | 6.42118 | -27.06983 | 31002 ft | 527 kts | 30° |
| 2026-04-11 09:12 | 6.48602 | -27.03560 | 30998 ft | 527 kts | 30° |
| 2026-04-11 09:12 | 6.55094 | -27.00125 | 31000 ft | 527 kts | 30° |
| 2026-04-11 09:13 | 6.61591 | -26.96686 | 31005 ft | 528 kts | 30° |
| 2026-04-11 09:13 | 6.68089 | -26.93245 | 31000 ft | 527 kts | 30° |
| 2026-04-11 09:14 | 6.74595 | -26.89805 | 31002 ft | 528 kts | 30° |
| 2026-04-11 09:14 | 6.81090 | -26.86360 | 30992 ft | 528 kts | 30° |
| 2026-04-11 09:15 | 6.87586 | -26.82920 | 30999 ft | 527 kts | 30° |
| 2026-04-11 09:15 | 6.94081 | -26.79478 | 30996 ft | 528 kts | 30° |
| 2026-04-11 09:16 | 7.00574 | -26.76038 | 30996 ft | 527 kts | 30° |
| 2026-04-11 09:16 | 7.07021 | -26.72621 | 31015 ft | 528 kts | 29° |
| 2026-04-11 09:17 | 7.13561 | -26.69150 | 31026 ft | 528 kts | 29° |
| 2026-04-11 09:17 | 7.20068 | -26.65695 | 31033 ft | 529 kts | 29° |
| 2026-04-11 09:18 | 7.26579 | -26.62235 | 31047 ft | 530 kts | 29° |
| 2026-04-11 09:18 | 7.33108 | -26.58771 | 31046 ft | 530 kts | 29° |
| 2026-04-11 09:19 | 7.39640 | -26.55308 | 31046 ft | 531 kts | 29° |
| 2026-04-11 09:19 | 7.46183 | -26.51838 | 31046 ft | 531 kts | 29° |
| 2026-04-11 09:20 | 7.52668 | -26.48373 | 31046 ft | 531 kts | 29° |
| 2026-04-11 09:20 | 7.59247 | -26.44873 | 31047 ft | 531 kts | 29° |
| 2026-04-11 09:21 | 7.65786 | -26.41400 | 31047 ft | 531 kts | 29° |
| 2026-04-11 09:21 | 7.72316 | -26.37929 | 31049 ft | 531 kts | 29° |
| 2026-04-11 09:22 | 7.78851 | -26.34450 | 31062 ft | 532 kts | 29° |
| 2026-04-11 09:22 | 7.85399 | -26.30967 | 31052 ft | 532 kts | 29° |
| 2026-04-11 09:23 | 7.91904 | -26.27496 | 31053 ft | 533 kts | 29° |
| 2026-04-11 09:23 | 7.98459 | -26.24005 | 31067 ft | 533 kts | 30° |
| 2026-04-11 09:24 | 8.05018 | -26.20506 | 31053 ft | 533 kts | 29° |
| 2026-04-11 09:24 | 8.11571 | -26.17011 | 31051 ft | 533 kts | 29° |
| 2026-04-11 09:25 | 8.18129 | -26.13517 | 31045 ft | 533 kts | 29° |
| 2026-04-11 09:25 | 8.24680 | -26.10018 | 31063 ft | 533 kts | 29° |
| 2026-04-11 09:26 | 8.31229 | -26.06522 | 31051 ft | 533 kts | 29° |
| 2026-04-11 09:26 | 8.37782 | -26.03021 | 31052 ft | 533 kts | 29° |
| 2026-04-11 09:27 | 8.44334 | -25.99516 | 31064 ft | 533 kts | 29° |
| 2026-04-11 09:27 | 8.50878 | -25.96017 | 31066 ft | 532 kts | 29° |
| 2026-04-11 09:28 | 8.57417 | -25.92525 | 31064 ft | 532 kts | 29° |
| 2026-04-11 09:28 | 8.63954 | -25.89018 | 31068 ft | 532 kts | 29° |
| 2026-04-11 09:29 | 8.70510 | -25.85503 | 31052 ft | 534 kts | 30° |
| 2026-04-11 09:29 | 8.77073 | -25.81989 | 31045 ft | 534 kts | 29° |
| 2026-04-11 09:30 | 8.83640 | -25.78464 | 31070 ft | 535 kts | 30° |
| 2026-04-11 09:30 | 8.90210 | -25.74938 | 31044 ft | 535 kts | 29° |
| 2026-04-11 09:31 | 8.96790 | -25.71411 | 31047 ft | 536 kts | 29° |
| 2026-04-11 09:31 | 9.03379 | -25.67875 | 31046 ft | 536 kts | 29° |
| 2026-04-11 09:32 | 9.09966 | -25.64342 | 31047 ft | 536 kts | 29° |
| 2026-04-11 09:32 | 9.16551 | -25.60801 | 31043 ft | 536 kts | 30° |
| 2026-04-11 09:33 | 9.23134 | -25.57260 | 31047 ft | 536 kts | 29° |
| 2026-04-11 09:33 | 9.29728 | -25.53714 | 31047 ft | 538 kts | 29° |
| 2026-04-11 09:34 | 9.36335 | -25.50162 | 31045 ft | 537 kts | 29° |
| 2026-04-11 09:34 | 9.42939 | -25.46618 | 31042 ft | 537 kts | 29° |
| 2026-04-11 09:35 | 9.49524 | -25.43062 | 31044 ft | 536 kts | 29° |
| 2026-04-11 09:35 | 9.56107 | -25.39514 | 31044 ft | 536 kts | 29° |
| 2026-04-11 09:36 | 9.61581 | -25.36560 | 31051 ft | 536 kts | 29° |
| 2026-04-11 09:36 | 9.68173 | -25.33013 | 31046 ft | 537 kts | 29° |
| 2026-04-11 09:37 | 9.74769 | -25.29458 | 31066 ft | 537 kts | 29° |
| 2026-04-11 09:37 | 9.81364 | -25.25895 | 31052 ft | 537 kts | 29° |
| 2026-04-11 09:38 | 9.87962 | -25.22334 | 31051 ft | 537 kts | 29° |
| 2026-04-11 09:38 | 9.94561 | -25.18775 | 31056 ft | 538 kts | 29° |
| 2026-04-11 09:39 | 10.01167 | -25.15209 | 31051 ft | 537 kts | 29° |
| 2026-04-11 09:39 | 10.07766 | -25.11642 | 31050 ft | 538 kts | 29° |
| 2026-04-11 09:40 | 10.14382 | -25.08066 | 31049 ft | 540 kts | 29° |
| 2026-04-11 09:40 | 10.21014 | -25.04481 | 31053 ft | 540 kts | 29° |
| 2026-04-11 09:41 | 10.27650 | -25.00893 | 31059 ft | 540 kts | 29° |
| 2026-04-11 09:41 | 10.34287 | -24.97304 | 31063 ft | 541 kts | 29° |
| 2026-04-11 09:42 | 10.40929 | -24.93712 | 31050 ft | 541 kts | 29° |
| 2026-04-11 09:43 | 10.50880 | -24.88314 | 31059 ft | 540 kts | 29° |
| 2026-04-11 09:43 | 10.57506 | -24.84718 | 31071 ft | 540 kts | 29° |
| 2026-04-11 09:44 | 10.64138 | -24.81124 | 31061 ft | 541 kts | 29° |
| 2026-04-11 09:44 | 10.70777 | -24.77528 | 31061 ft | 541 kts | 29° |
| 2026-04-11 09:45 | 10.77410 | -24.73923 | 31063 ft | 541 kts | 29° |
| 2026-04-11 09:45 | 10.84049 | -24.70313 | 31071 ft | 541 kts | 29° |
| 2026-04-11 09:46 | 10.90687 | -24.66705 | 31059 ft | 541 kts | 29° |
| 2026-04-11 09:46 | 10.97332 | -24.63103 | 31068 ft | 541 kts | 29° |
| 2026-04-11 09:47 | 11.03963 | -24.59486 | 31061 ft | 541 kts | 29° |
| 2026-04-11 09:47 | 11.10612 | -24.55864 | 31066 ft | 542 kts | 29° |
| 2026-04-11 09:48 | 11.17262 | -24.52245 | 31060 ft | 542 kts | 29° |
| 2026-04-11 09:48 | 11.23913 | -24.48620 | 31070 ft | 542 kts | 29° |
| 2026-04-11 09:49 | 11.30567 | -24.44993 | 31054 ft | 542 kts | 29° |
| 2026-04-11 09:49 | 11.37221 | -24.41362 | 31071 ft | 542 kts | 28° |
| 2026-04-11 09:50 | 11.43876 | -24.37731 | 31056 ft | 542 kts | 28° |
| 2026-04-11 09:50 | 11.50530 | -24.34099 | 31071 ft | 542 kts | 28° |
| 2026-04-11 09:51 | 11.57135 | -24.30490 | 31056 ft | 543 kts | 28° |
| 2026-04-11 09:51 | 11.63793 | -24.26851 | 31054 ft | 543 kts | 28° |
| 2026-04-11 09:52 | 11.70447 | -24.23210 | 31074 ft | 542 kts | 28° |
| 2026-04-11 09:52 | 11.77095 | -24.19573 | 31063 ft | 542 kts | 28° |
| 2026-04-11 09:53 | 11.83740 | -24.15934 | 31069 ft | 541 kts | 28° |
| 2026-04-11 09:53 | 11.90379 | -24.12290 | 31073 ft | 542 kts | 28° |
| 2026-04-11 09:54 | 11.97026 | -24.08648 | 31065 ft | 542 kts | 28° |
| 2026-04-11 09:54 | 12.03672 | -24.05007 | 31074 ft | 542 kts | 28° |
| 2026-04-11 09:55 | 12.10319 | -24.01360 | 31053 ft | 543 kts | 28° |
| 2026-04-11 09:55 | 12.16964 | -23.97710 | 31068 ft | 542 kts | 28° |
| 2026-04-11 09:56 | 12.23614 | -23.94056 | 31069 ft | 543 kts | 28° |
| 2026-04-11 09:56 | 12.30264 | -23.90403 | 31067 ft | 542 kts | 28° |
| 2026-04-11 09:57 | 12.36913 | -23.86744 | 31051 ft | 543 kts | 28° |
| 2026-04-11 09:57 | 12.43566 | -23.83079 | 31075 ft | 544 kts | 28° |
| 2026-04-11 09:58 | 12.50229 | -23.79414 | 31055 ft | 544 kts | 28° |
| 2026-04-11 09:58 | 12.56883 | -23.75747 | 31075 ft | 543 kts | 28° |
| 2026-04-11 09:59 | 12.63541 | -23.72077 | 31068 ft | 543 kts | 28° |
| 2026-04-11 09:59 | 12.70202 | -23.68403 | 31076 ft | 544 kts | 28° |
| 2026-04-11 10:00 | 12.76863 | -23.64722 | 31073 ft | 544 kts | 28° |
| 2026-04-11 10:00 | 12.83527 | -23.61042 | 31067 ft | 545 kts | 28° |
| 2026-04-11 10:01 | 12.90203 | -23.57353 | 31081 ft | 546 kts | 28° |
| 2026-04-11 10:01 | 12.96891 | -23.53657 | 31069 ft | 546 kts | 28° |
| 2026-04-11 10:02 | 13.03572 | -23.49958 | 31074 ft | 546 kts | 28° |
| 2026-04-11 10:02 | 13.10256 | -23.46251 | 31086 ft | 546 kts | 28° |
| 2026-04-11 10:03 | 13.16933 | -23.42530 | 31088 ft | 546 kts | 28° |
| 2026-04-11 10:03 | 13.23635 | -23.38838 | 31080 ft | 546 kts | 28° |
| 2026-04-11 10:04 | 13.30343 | -23.35129 | 31082 ft | 548 kts | 28° |
| 2026-04-11 10:04 | 13.37059 | -23.31400 | 31087 ft | 549 kts | 28° |
| 2026-04-11 10:05 | 13.43783 | -23.27660 | 31075 ft | 550 kts | 28° |
| 2026-04-11 10:05 | 13.50508 | -23.23913 | 31078 ft | 549 kts | 28° |
| 2026-04-11 10:06 | 13.57220 | -23.20174 | 31081 ft | 550 kts | 28° |
| 2026-04-11 10:06 | 13.63961 | -23.16439 | 31082 ft | 550 kts | 28° |
| 2026-04-11 10:07 | 13.70682 | -23.12711 | 31084 ft | 548 kts | 28° |
| 2026-04-11 10:07 | 13.77379 | -23.08970 | 31090 ft | 548 kts | 28° |
| 2026-04-11 10:08 | 13.84093 | -23.05238 | 31092 ft | 549 kts | 28° |
| 2026-04-11 10:08 | 13.90819 | -23.01478 | 31087 ft | 551 kts | 28° |
| 2026-04-11 10:09 | 13.97563 | -22.97717 | 31078 ft | 551 kts | 28° |
| 2026-04-11 10:09 | 14.04298 | -22.93950 | 31082 ft | 551 kts | 27° |
| 2026-04-11 10:10 | 14.11027 | -22.90188 | 31080 ft | 550 kts | 27° |
| 2026-04-11 10:10 | 14.17746 | -22.86422 | 31085 ft | 551 kts | 27° |
| 2026-04-11 10:11 | 14.24487 | -22.82640 | 31074 ft | 552 kts | 27° |
| 2026-04-11 10:11 | 14.31245 | -22.78899 | 31077 ft | 550 kts | 27° |
| 2026-04-11 10:12 | 14.37967 | -22.75119 | 31077 ft | 551 kts | 27° |
| 2026-04-11 10:12 | 14.44705 | -22.71333 | 31073 ft | 552 kts | 27° |
| 2026-04-11 10:13 | 14.51474 | -22.67537 | 31070 ft | 554 kts | 27° |
| 2026-04-11 10:13 | 14.58237 | -22.63728 | 31075 ft | 553 kts | 27° |
| 2026-04-11 10:14 | 14.64991 | -22.59933 | 31075 ft | 553 kts | 27° |
| 2026-04-11 10:14 | 14.71741 | -22.56130 | 31078 ft | 552 kts | 27° |
| 2026-04-11 10:15 | 14.78496 | -22.52328 | 31082 ft | 554 kts | 27° |
| 2026-04-11 10:15 | 14.85264 | -22.48524 | 31073 ft | 553 kts | 27° |
| 2026-04-11 10:16 | 14.92028 | -22.44710 | 31066 ft | 553 kts | 27° |
| 2026-04-11 10:16 | 14.98788 | -22.40910 | 31076 ft | 553 kts | 27° |
| 2026-04-11 10:17 | 15.05539 | -22.37088 | 31084 ft | 553 kts | 27° |
| 2026-04-11 10:17 | 15.12289 | -22.33280 | 31083 ft | 553 kts | 27° |
| 2026-04-11 10:18 | 15.19043 | -22.29453 | 31078 ft | 554 kts | 26° |
| 2026-04-11 10:18 | 15.25815 | -22.25619 | 31101 ft | 555 kts | 26° |
| 2026-04-11 10:19 | 15.31454 | -22.22429 | 31100 ft | 556 kts | 26° |
| 2026-04-11 10:19 | 15.38246 | -22.18584 | 31100 ft | 557 kts | 26° |
| 2026-04-11 10:20 | 15.45045 | -22.14734 | 31097 ft | 556 kts | 26° |
| 2026-04-11 10:20 | 15.51820 | -22.10895 | 31095 ft | 555 kts | 26° |
| 2026-04-11 10:21 | 15.58594 | -22.07041 | 31107 ft | 555 kts | 26° |
| 2026-04-11 10:21 | 15.65391 | -22.03181 | 31108 ft | 558 kts | 26° |
| 2026-04-11 10:22 | 15.72199 | -21.99307 | 31101 ft | 558 kts | 26° |
| 2026-04-11 10:22 | 15.79004 | -21.95433 | 31107 ft | 558 kts | 26° |
| 2026-04-11 10:23 | 15.85809 | -21.91559 | 31097 ft | 558 kts | 26° |
| 2026-04-11 10:23 | 15.92618 | -21.87680 | 31104 ft | 558 kts | 26° |
| 2026-04-11 10:24 | 15.99427 | -21.83799 | 31098 ft | 559 kts | 26° |
| 2026-04-11 10:24 | 16.06242 | -21.79901 | 31097 ft | 559 kts | 26° |
| 2026-04-11 10:25 | 16.13046 | -21.76011 | 31088 ft | 558 kts | 26° |
| 2026-04-11 10:25 | 16.19841 | -21.72112 | 31108 ft | 559 kts | 26° |
| 2026-04-11 10:26 | 16.26637 | -21.68218 | 31113 ft | 558 kts | 26° |
| 2026-04-11 10:26 | 16.33435 | -21.64329 | 31111 ft | 557 kts | 25° |
| 2026-04-11 10:27 | 16.40218 | -21.60449 | 31106 ft | 555 kts | 26° |
| 2026-04-11 10:27 | 16.46963 | -21.56544 | 31111 ft | 555 kts | 25° |
| 2026-04-11 10:28 | 16.53731 | -21.52673 | 31109 ft | 555 kts | 25° |
| 2026-04-11 10:28 | 16.60503 | -21.48805 | 31112 ft | 555 kts | 25° |
| 2026-04-11 10:29 | 16.67265 | -21.44911 | 31110 ft | 555 kts | 25° |
| 2026-04-11 10:29 | 16.74020 | -21.41013 | 31113 ft | 556 kts | 25° |
| 2026-04-11 10:30 | 16.80787 | -21.37112 | 31111 ft | 556 kts | 25° |
| 2026-04-11 10:30 | 16.87553 | -21.33214 | 31110 ft | 555 kts | 25° |
| 2026-04-11 10:31 | 16.94311 | -21.29312 | 31113 ft | 555 kts | 25° |
| 2026-04-11 10:31 | 17.01063 | -21.25417 | 31110 ft | 554 kts | 25° |
| 2026-04-11 10:32 | 17.07761 | -21.21538 | 31109 ft | 555 kts | 25° |
| 2026-04-11 10:32 | 17.14508 | -21.17629 | 31113 ft | 554 kts | 25° |
| 2026-04-11 10:33 | 17.21245 | -21.13728 | 31112 ft | 553 kts | 25° |
| 2026-04-11 10:33 | 17.27975 | -21.09831 | 31112 ft | 553 kts | 25° |
| 2026-04-11 10:34 | 17.34713 | -21.05921 | 31111 ft | 554 kts | 25° |
| 2026-04-11 10:34 | 17.41463 | -21.02008 | 31112 ft | 554 kts | 25° |
| 2026-04-11 10:35 | 17.48206 | -20.98086 | 31110 ft | 555 kts | 25° |
| 2026-04-11 10:35 | 17.54952 | -20.94157 | 31102 ft | 555 kts | 24° |
| 2026-04-11 10:36 | 17.61692 | -20.90237 | 31099 ft | 554 kts | 24° |
| 2026-04-11 10:36 | 17.68423 | -20.86312 | 31101 ft | 553 kts | 24° |
| 2026-04-11 10:37 | 17.75142 | -20.82392 | 31105 ft | 553 kts | 24° |
| 2026-04-11 10:37 | 17.81869 | -20.78473 | 31100 ft | 554 kts | 24° |
| 2026-04-11 10:38 | 17.88602 | -20.74540 | 31098 ft | 554 kts | 24° |
| 2026-04-11 10:38 | 17.98712 | -20.68624 | 31106 ft | 555 kts | 24° |
| 2026-04-11 10:39 | 18.05473 | -20.64671 | 31113 ft | 557 kts | 24° |
| 2026-04-11 10:39 | 18.12235 | -20.60706 | 31105 ft | 556 kts | 24° |
| 2026-04-11 10:40 | 18.18982 | -20.56742 | 31109 ft | 554 kts | 24° |
| 2026-04-11 10:40 | 18.25707 | -20.52798 | 31107 ft | 553 kts | 24° |
| 2026-04-11 10:41 | 18.32420 | -20.48856 | 31117 ft | 552 kts | 24° |
| 2026-04-11 10:41 | 18.39127 | -20.44912 | 31124 ft | 552 kts | 24° |
| 2026-04-11 10:42 | 18.45835 | -20.40963 | 31129 ft | 552 kts | 24° |
| 2026-04-11 10:42 | 18.52544 | -20.37007 | 31133 ft | 553 kts | 24° |
| 2026-04-11 10:43 | 18.62609 | -20.31076 | 31133 ft | 553 kts | 24° |
| 2026-04-11 10:44 | 18.69311 | -20.27123 | 31127 ft | 552 kts | 24° |
| 2026-04-11 10:44 | 18.76000 | -20.23178 | 31124 ft | 551 kts | 24° |
| 2026-04-11 10:45 | 18.82679 | -20.19214 | 31129 ft | 551 kts | 24° |
| 2026-04-11 10:45 | 18.89350 | -20.15262 | 31127 ft | 548 kts | 24° |
| 2026-04-11 10:46 | 18.95992 | -20.11326 | 31131 ft | 547 kts | 24° |
| 2026-04-11 10:46 | 19.02634 | -20.07384 | 31131 ft | 548 kts | 24° |
| 2026-04-11 10:47 | 19.09270 | -20.03453 | 31130 ft | 546 kts | 24° |
| 2026-04-11 10:47 | 19.15899 | -19.99516 | 31128 ft | 546 kts | 24° |
| 2026-04-11 10:48 | 19.22504 | -19.95574 | 31129 ft | 545 kts | 24° |
| 2026-04-11 10:48 | 19.29093 | -19.91662 | 31128 ft | 541 kts | 23° |
| 2026-04-11 10:49 | 19.35641 | -19.87747 | 31126 ft | 540 kts | 24° |
| 2026-04-11 10:49 | 19.42163 | -19.83851 | 31127 ft | 537 kts | 24° |
| 2026-04-11 10:50 | 19.48687 | -19.79960 | 31132 ft | 538 kts | 23° |
| 2026-04-11 10:50 | 19.55215 | -19.76065 | 31127 ft | 541 kts | 24° |
| 2026-04-11 10:51 | 19.61762 | -19.72147 | 31131 ft | 541 kts | 24° |
| 2026-04-11 10:51 | 19.68297 | -19.68229 | 31128 ft | 539 kts | 24° |
| 2026-04-11 10:52 | 19.74816 | -19.64332 | 31126 ft | 538 kts | 23° |
| 2026-04-11 10:52 | 19.81346 | -19.60419 | 31134 ft | 540 kts | 24° |
| 2026-04-11 10:53 | 19.87884 | -19.56490 | 31128 ft | 540 kts | 23° |
| 2026-04-11 10:53 | 19.94418 | -19.52570 | 31128 ft | 539 kts | 24° |
| 2026-04-11 10:54 | 20.00937 | -19.48653 | 31133 ft | 538 kts | 23° |
| 2026-04-11 10:54 | 20.07443 | -19.44732 | 31131 ft | 537 kts | 23° |
| 2026-04-11 10:55 | 20.13923 | -19.40818 | 31121 ft | 534 kts | 24° |
| 2026-04-11 10:55 | 20.20379 | -19.36927 | 31130 ft | 533 kts | 23° |
| 2026-04-11 10:56 | 20.26851 | -19.33054 | 31134 ft | 533 kts | 23° |
| 2026-04-11 10:56 | 20.33309 | -19.29144 | 31131 ft | 535 kts | 24° |
| 2026-04-11 10:57 | 20.39776 | -19.25216 | 31135 ft | 535 kts | 24° |
| 2026-04-11 10:57 | 20.46249 | -19.21309 | 31134 ft | 535 kts | 23° |
| 2026-04-11 10:58 | 20.52720 | -19.17365 | 31118 ft | 535 kts | 24° |
| 2026-04-11 10:58 | 20.59162 | -19.13397 | 31135 ft | 533 kts | 24° |
| 2026-04-11 10:59 | 20.65602 | -19.09486 | 31123 ft | 531 kts | 25° |
| 2026-04-11 10:59 | 20.72027 | -19.05567 | 31142 ft | 532 kts | 23° |
| 2026-04-11 11:00 | 20.78498 | -19.01704 | 31145 ft | 534 kts | 23° |
| 2026-04-11 11:00 | 20.84977 | -18.97784 | 31141 ft | 535 kts | 24° |
| 2026-04-11 11:01 | 20.91451 | -18.93829 | 31137 ft | 536 kts | 24° |
| 2026-04-11 11:01 | 20.97913 | -18.89876 | 31148 ft | 535 kts | 24° |
| 2026-04-11 11:02 | 21.03275 | -18.86598 | 31164 ft | 534 kts | 24° |
| 2026-04-11 11:02 | 21.09719 | -18.82654 | 31163 ft | 533 kts | 24° |
| 2026-04-11 11:03 | 21.16167 | -18.78714 | 31174 ft | 533 kts | 24° |
| 2026-04-11 11:03 | 21.22601 | -18.74778 | 31168 ft | 532 kts | 24° |
| 2026-04-11 11:04 | 21.29027 | -18.70832 | 31167 ft | 532 kts | 24° |
| 2026-04-11 11:04 | 21.35456 | -18.66883 | 31166 ft | 533 kts | 24° |
| 2026-04-11 11:05 | 21.41891 | -18.62932 | 31167 ft | 533 kts | 24° |
| 2026-04-11 11:05 | 21.48337 | -18.58970 | 31166 ft | 534 kts | 24° |
| 2026-04-11 11:06 | 21.54783 | -18.54999 | 31165 ft | 534 kts | 24° |
| 2026-04-11 11:06 | 21.61228 | -18.51030 | 31169 ft | 533 kts | 24° |
| 2026-04-11 11:07 | 21.67645 | -18.47065 | 31167 ft | 532 kts | 24° |
| 2026-04-11 11:07 | 21.74075 | -18.43090 | 31170 ft | 533 kts | 24° |
| 2026-04-11 11:08 | 21.80482 | -18.39118 | 31172 ft | 531 kts | 24° |
| 2026-04-11 11:08 | 21.86900 | -18.35146 | 31173 ft | 533 kts | 24° |
| 2026-04-11 11:09 | 21.93326 | -18.31177 | 31178 ft | 532 kts | 24° |
| 2026-04-11 11:09 | 21.99702 | -18.27224 | 31178 ft | 533 kts | 24° |
| 2026-04-11 11:10 | 22.06117 | -18.23236 | 31177 ft | 532 kts | 24° |
| 2026-04-11 11:10 | 22.12580 | -18.19233 | 31169 ft | 533 kts | 24° |
| 2026-04-11 11:11 | 22.18955 | -18.15265 | 31177 ft | 533 kts | 24° |
| 2026-04-11 11:11 | 22.25420 | -18.11231 | 31176 ft | 533 kts | 24° |
| 2026-04-11 11:12 | 22.31802 | -18.07244 | 31174 ft | 533 kts | 24° |
| 2026-04-11 11:12 | 22.38223 | -18.03231 | 31175 ft | 533 kts | 24° |
| 2026-04-11 11:13 | 22.44641 | -17.99225 | 31177 ft | 533 kts | 24° |
| 2026-04-11 11:13 | 22.51056 | -17.95217 | 31175 ft | 532 kts | 24° |
| 2026-04-11 11:14 | 22.57456 | -17.91205 | 31181 ft | 531 kts | 24° |
| 2026-04-11 11:14 | 22.63846 | -17.87198 | 31184 ft | 530 kts | 24° |
| 2026-04-11 11:15 | 22.70225 | -17.83194 | 31183 ft | 529 kts | 24° |
| 2026-04-11 11:15 | 22.76587 | -17.79191 | 31185 ft | 529 kts | 24° |
| 2026-04-11 11:16 | 22.82948 | -17.75192 | 31191 ft | 529 kts | 25° |
| 2026-04-11 11:16 | 22.89308 | -17.71190 | 31195 ft | 528 kts | 25° |
| 2026-04-11 11:17 | 22.95662 | -17.67187 | 31195 ft | 528 kts | 25° |
| 2026-04-11 11:17 | 23.02020 | -17.63173 | 31196 ft | 529 kts | 25° |
| 2026-04-11 11:18 | 23.08367 | -17.59161 | 31194 ft | 528 kts | 25° |
| 2026-04-11 11:18 | 23.14716 | -17.55145 | 31192 ft | 528 kts | 25° |
| 2026-04-11 11:19 | 23.21054 | -17.51129 | 31199 ft | 527 kts | 25° |
| 2026-04-11 11:19 | 23.27388 | -17.47113 | 31203 ft | 527 kts | 25° |
| 2026-04-11 11:20 | 23.33714 | -17.43095 | 31200 ft | 525 kts | 25° |
| 2026-04-11 11:20 | 23.40027 | -17.39085 | 31207 ft | 526 kts | 25° |
| 2026-04-11 11:21 | 23.46346 | -17.35070 | 31203 ft | 525 kts | 25° |
| 2026-04-11 11:21 | 23.52657 | -17.31059 | 31204 ft | 525 kts | 25° |
| 2026-04-11 11:22 | 23.58967 | -17.27036 | 31202 ft | 525 kts | 25° |
| 2026-04-11 11:22 | 23.65277 | -17.23006 | 31204 ft | 526 kts | 26° |
| 2026-04-11 11:23 | 23.71597 | -17.18971 | 31203 ft | 527 kts | 26° |
| 2026-04-11 11:23 | 23.77914 | -17.14924 | 31205 ft | 527 kts | 26° |
| 2026-04-11 11:24 | 23.84228 | -17.10878 | 31214 ft | 525 kts | 25° |
| 2026-04-11 11:24 | 23.90528 | -17.06838 | 31209 ft | 525 kts | 26° |
| 2026-04-11 11:25 | 23.96821 | -17.02805 | 31214 ft | 524 kts | 26° |
| 2026-04-11 11:25 | 24.03101 | -16.98769 | 31214 ft | 524 kts | 26° |
| 2026-04-11 11:26 | 24.09382 | -16.94725 | 31214 ft | 523 kts | 26° |
| 2026-04-11 11:26 | 24.15651 | -16.90689 | 31210 ft | 522 kts | 26° |
| 2026-04-11 11:27 | 24.21904 | -16.86658 | 31211 ft | 521 kts | 26° |
| 2026-04-11 11:27 | 24.28157 | -16.82626 | 31209 ft | 521 kts | 26° |
| 2026-04-11 11:28 | 24.34386 | -16.78596 | 31209 ft | 519 kts | 26° |
| 2026-04-11 11:28 | 24.40609 | -16.74567 | 31213 ft | 520 kts | 26° |
| 2026-04-11 11:29 | 24.49952 | -16.68515 | 31215 ft | 520 kts | 26° |
| 2026-04-11 11:29 | 24.56147 | -16.64496 | 31216 ft | 521 kts | 26° |
| 2026-04-11 11:30 | 24.62384 | -16.60445 | 31214 ft | 521 kts | 26° |
| 2026-04-11 11:30 | 24.68625 | -16.56386 | 31211 ft | 521 kts | 26° |
| 2026-04-11 11:31 | 24.74856 | -16.52323 | 31216 ft | 521 kts | 26° |
| 2026-04-11 11:31 | 24.81090 | -16.48262 | 31206 ft | 520 kts | 27° |
| 2026-04-11 11:32 | 24.87308 | -16.44203 | 31212 ft | 519 kts | 27° |
| 2026-04-11 11:32 | 24.93522 | -16.40142 | 31211 ft | 519 kts | 27° |
| 2026-04-11 11:33 | 24.99729 | -16.36078 | 31210 ft | 519 kts | 27° |
| 2026-04-11 11:33 | 25.05937 | -16.32012 | 31214 ft | 519 kts | 27° |
| 2026-04-11 11:34 | 25.12138 | -16.27944 | 31211 ft | 518 kts | 27° |
| 2026-04-11 11:34 | 25.18339 | -16.23872 | 31216 ft | 519 kts | 27° |
| 2026-04-11 11:35 | 25.24537 | -16.19795 | 31209 ft | 518 kts | 27° |
| 2026-04-11 11:35 | 25.30726 | -16.15719 | 31214 ft | 518 kts | 27° |
| 2026-04-11 11:36 | 25.36918 | -16.11644 | 31207 ft | 518 kts | 27° |
| 2026-04-11 11:36 | 25.43100 | -16.07558 | 31212 ft | 517 kts | 27° |
| 2026-04-11 11:37 | 25.49275 | -16.03473 | 31214 ft | 517 kts | 28° |
| 2026-04-11 11:37 | 25.55446 | -15.99390 | 31214 ft | 517 kts | 28° |
| 2026-04-11 11:38 | 25.61615 | -15.95304 | 31212 ft | 516 kts | 28° |
| 2026-04-11 11:38 | 25.67782 | -15.91218 | 31207 ft | 516 kts | 28° |
| 2026-04-11 11:39 | 25.73895 | -15.87157 | 31220 ft | 516 kts | 28° |
| 2026-04-11 11:39 | 25.80047 | -15.83067 | 31221 ft | 516 kts | 28° |
| 2026-04-11 11:40 | 25.86199 | -15.78968 | 31222 ft | 516 kts | 28° |
| 2026-04-11 11:40 | 25.92352 | -15.74867 | 31222 ft | 516 kts | 28° |
| 2026-04-11 11:41 | 25.98512 | -15.70753 | 31223 ft | 516 kts | 28° |
| 2026-04-11 11:41 | 26.04668 | -15.66636 | 31222 ft | 517 kts | 28° |
| 2026-04-11 11:42 | 26.10822 | -15.62523 | 31220 ft | 516 kts | 28° |
| 2026-04-11 11:42 | 26.16973 | -15.58404 | 31221 ft | 516 kts | 28° |
| 2026-04-11 11:43 | 26.23125 | -15.54275 | 31223 ft | 516 kts | 28° |
| 2026-04-11 11:43 | 26.29277 | -15.50150 | 31220 ft | 516 kts | 28° |
| 2026-04-11 11:44 | 26.35418 | -15.46017 | 31221 ft | 515 kts | 28° |
| 2026-04-11 11:44 | 26.41555 | -15.41877 | 31223 ft | 515 kts | 28° |
| 2026-04-11 11:45 | 26.47694 | -15.37740 | 31220 ft | 515 kts | 27° |
| 2026-04-11 11:45 | 26.53827 | -15.33607 | 31214 ft | 515 kts | 27° |
| 2026-04-11 11:46 | 26.59955 | -15.29460 | 31204 ft | 515 kts | 27° |
| 2026-04-11 11:46 | 26.66082 | -15.25315 | 31202 ft | 514 kts | 27° |
| 2026-04-11 11:47 | 26.72202 | -15.21172 | 31205 ft | 514 kts | 27° |
| 2026-04-11 11:47 | 26.78308 | -15.17031 | 31204 ft | 513 kts | 27° |
| 2026-04-11 11:48 | 26.83384 | -15.13582 | 31202 ft | 513 kts | 27° |
| 2026-04-11 11:48 | 26.89484 | -15.09438 | 31201 ft | 513 kts | 27° |
| 2026-04-11 11:49 | 26.95588 | -15.05289 | 31209 ft | 513 kts | 27° |
| 2026-04-11 11:49 | 27.01694 | -15.01128 | 31199 ft | 514 kts | 27° |
| 2026-04-11 11:50 | 27.07803 | -14.96956 | 31206 ft | 514 kts | 27° |
| 2026-04-11 11:50 | 27.13909 | -14.92788 | 31201 ft | 513 kts | 27° |
| 2026-04-11 11:51 | 27.19999 | -14.88625 | 31203 ft | 512 kts | 27° |
| 2026-04-11 11:51 | 27.26080 | -14.84452 | 31201 ft | 512 kts | 27° |
| 2026-04-11 11:52 | 27.32171 | -14.80277 | 31205 ft | 513 kts | 27° |
| 2026-04-11 11:52 | 27.38263 | -14.76101 | 31205 ft | 513 kts | 27° |
| 2026-04-11 11:53 | 27.41326 | -14.73995 | 31394 ft | 517 kts | 27° |
| 2026-04-11 11:53 | 27.44393 | -14.71884 | 31891 ft | 516 kts | 27° |
| 2026-04-11 11:53 | 27.47442 | -14.69783 | 32493 ft | 511 kts | 27° |
| 2026-04-11 11:53 | 27.50468 | -14.67696 | 33033 ft | 509 kts | 26° |
| 2026-04-11 11:54 | 27.53492 | -14.65612 | 33215 ft | 512 kts | 26° |
| 2026-04-11 11:54 | 27.56537 | -14.63512 | 33207 ft | 512 kts | 26° |
| 2026-04-11 11:54 | 27.62570 | -14.59346 | 33193 ft | 506 kts | 26° |
| 2026-04-11 11:55 | 27.68572 | -14.55194 | 33202 ft | 505 kts | 26° |
| 2026-04-11 11:55 | 27.74565 | -14.51048 | 33210 ft | 505 kts | 26° |
| 2026-04-11 11:56 | 27.80566 | -14.46891 | 33193 ft | 507 kts | 26° |
| 2026-04-11 11:56 | 27.86572 | -14.42726 | 33193 ft | 506 kts | 26° |
| 2026-04-11 11:57 | 27.92578 | -14.38555 | 33195 ft | 507 kts | 26° |
| 2026-04-11 11:57 | 27.98540 | -14.34410 | 33194 ft | 507 kts | 26° |
| 2026-04-11 11:58 | 28.04534 | -14.30230 | 33192 ft | 506 kts | 26° |
| 2026-04-11 11:58 | 28.10525 | -14.26041 | 33190 ft | 506 kts | 26° |
| 2026-04-11 11:59 | 28.16509 | -14.21864 | 33193 ft | 505 kts | 26° |
| 2026-04-11 11:59 | 28.22493 | -14.17682 | 33196 ft | 505 kts | 26° |
| 2026-04-11 12:00 | 28.28480 | -14.13497 | 33201 ft | 505 kts | 26° |
| 2026-04-11 12:00 | 28.34452 | -14.09304 | 33198 ft | 505 kts | 26° |
| 2026-04-11 12:01 | 28.40434 | -14.05101 | 33189 ft | 506 kts | 26° |
| 2026-04-11 12:01 | 28.46414 | -14.00888 | 33185 ft | 505 kts | 26° |
| 2026-04-11 12:02 | 28.52394 | -13.96677 | 33190 ft | 505 kts | 26° |
| 2026-04-11 12:02 | 28.58361 | -13.92471 | 33192 ft | 505 kts | 26° |
| 2026-04-11 12:03 | 28.64323 | -13.88260 | 33194 ft | 504 kts | 26° |
| 2026-04-11 12:03 | 28.70280 | -13.84051 | 33179 ft | 503 kts | 26° |
| 2026-04-11 12:04 | 28.76220 | -13.79848 | 33178 ft | 502 kts | 26° |
| 2026-04-11 12:04 | 28.82147 | -13.75641 | 33186 ft | 502 kts | 26° |
| 2026-04-11 12:05 | 28.88073 | -13.71432 | 33188 ft | 502 kts | 25° |
| 2026-04-11 12:05 | 28.94000 | -13.67223 | 33186 ft | 501 kts | 26° |
| 2026-04-11 12:06 | 28.99914 | -13.63014 | 33188 ft | 500 kts | 25° |
| 2026-04-11 12:06 | 29.05817 | -13.58806 | 33186 ft | 499 kts | 25° |
| 2026-04-11 12:07 | 29.11702 | -13.54599 | 33185 ft | 499 kts | 26° |
| 2026-04-11 12:07 | 29.17159 | -13.49555 | 33168 ft | 512 kts | 39° |
| 2026-04-11 12:08 | 29.21647 | -13.43144 | 33188 ft | 520 kts | 50° |
| 2026-04-11 12:08 | 29.25733 | -13.36293 | 33185 ft | 521 kts | 50° |
| 2026-04-11 12:09 | 29.29833 | -13.29444 | 33178 ft | 521 kts | 50° |
| 2026-04-11 12:09 | 29.33963 | -13.22632 | 33188 ft | 520 kts | 49° |
| 2026-04-11 12:10 | 29.38104 | -13.15825 | 33187 ft | 521 kts | 49° |
| 2026-04-11 12:10 | 29.42250 | -13.09011 | 33176 ft | 521 kts | 49° |
| 2026-04-11 12:11 | 29.46385 | -13.02188 | 33177 ft | 521 kts | 49° |
| 2026-04-11 12:11 | 29.50511 | -12.95361 | 33169 ft | 520 kts | 49° |
| 2026-04-11 12:12 | 29.54631 | -12.88534 | 33175 ft | 520 kts | 49° |
| 2026-04-11 12:12 | 29.58750 | -12.81700 | 33167 ft | 520 kts | 49° |
| 2026-04-11 12:13 | 29.62835 | -12.74916 | 33170 ft | 519 kts | 49° |
| 2026-04-11 12:13 | 29.66961 | -12.68042 | 33166 ft | 518 kts | 49° |
| 2026-04-11 12:14 | 29.71050 | -12.61222 | 33162 ft | 518 kts | 49° |
| 2026-04-11 12:14 | 29.75105 | -12.54442 | 33147 ft | 518 kts | 49° |
| 2026-04-11 12:15 | 29.79173 | -12.47587 | 33149 ft | 518 kts | 49° |
| 2026-04-11 12:15 | 29.83222 | -12.40725 | 33147 ft | 518 kts | 49° |
| 2026-04-11 12:16 | 29.87267 | -12.33873 | 33146 ft | 517 kts | 50° |
| 2026-04-11 12:16 | 29.91344 | -12.26973 | 33141 ft | 526 kts | 50° |
| 2026-04-11 12:17 | 29.95471 | -12.19959 | 33128 ft | 529 kts | 50° |
| 2026-04-11 12:17 | 29.99590 | -12.12945 | 33126 ft | 528 kts | 50° |
| 2026-04-11 12:18 | 30.03708 | -12.05951 | 33121 ft | 526 kts | 50° |
| 2026-04-11 12:19 | 30.09908 | -11.95483 | 33119 ft | 526 kts | 50° |
| 2026-04-11 12:19 | 30.14031 | -11.88505 | 33119 ft | 526 kts | 50° |
| 2026-04-11 12:20 | 30.18145 | -11.81527 | 33111 ft | 525 kts | 50° |
| 2026-04-11 12:20 | 30.22251 | -11.74542 | 33112 ft | 525 kts | 50° |
| 2026-04-11 12:21 | 30.26349 | -11.67554 | 33111 ft | 525 kts | 50° |
| 2026-04-11 12:21 | 30.30441 | -11.60563 | 33112 ft | 525 kts | 50° |
| 2026-04-11 12:22 | 30.34546 | -11.53557 | 33097 ft | 525 kts | 50° |
| 2026-04-11 12:22 | 30.38636 | -11.46554 | 33125 ft | 524 kts | 50° |
| 2026-04-11 12:23 | 30.42716 | -11.39558 | 33137 ft | 524 kts | 50° |
| 2026-04-11 12:23 | 30.46788 | -11.32558 | 33141 ft | 523 kts | 50° |
| 2026-04-11 12:24 | 30.50854 | -11.25556 | 33117 ft | 524 kts | 50° |
| 2026-04-11 12:24 | 30.54916 | -11.18549 | 33111 ft | 523 kts | 50° |
| 2026-04-11 12:25 | 30.58970 | -11.11545 | 33104 ft | 523 kts | 50° |
| 2026-04-11 12:25 | 30.63018 | -11.04538 | 33094 ft | 522 kts | 50° |
| 2026-04-11 12:26 | 30.67058 | -10.97539 | 33094 ft | 521 kts | 50° |
| 2026-04-11 12:26 | 30.71088 | -10.90537 | 33092 ft | 521 kts | 50° |
| 2026-04-11 12:27 | 30.75112 | -10.83539 | 33089 ft | 520 kts | 50° |
| 2026-04-11 12:27 | 30.79129 | -10.76537 | 33095 ft | 520 kts | 50° |
| 2026-04-11 12:28 | 30.83138 | -10.69531 | 33090 ft | 520 kts | 50° |
| 2026-04-11 12:28 | 30.87153 | -10.62516 | 33099 ft | 521 kts | 50° |
| 2026-04-11 12:29 | 30.91166 | -10.55480 | 33104 ft | 521 kts | 50° |
| 2026-04-11 12:29 | 30.95169 | -10.48452 | 33099 ft | 520 kts | 50° |
| 2026-04-11 12:30 | 30.99162 | -10.41431 | 33099 ft | 519 kts | 50° |
| 2026-04-11 12:30 | 31.03146 | -10.34413 | 33103 ft | 518 kts | 50° |
| 2026-04-11 12:31 | 31.07125 | -10.27392 | 33105 ft | 518 kts | 50° |
| 2026-04-11 12:31 | 31.11091 | -10.20377 | 33115 ft | 518 kts | 50° |
| 2026-04-11 12:32 | 31.15051 | -10.13362 | 33112 ft | 517 kts | 50° |
| 2026-04-11 12:32 | 31.19008 | -10.06349 | 33119 ft | 517 kts | 50° |
| 2026-04-11 12:33 | 31.22293 | -10.00508 | 33121 ft | 517 kts | 50° |
| 2026-04-11 12:33 | 31.26236 | -9.93484 | 33122 ft | 516 kts | 49° |
| 2026-04-11 12:34 | 31.30161 | -9.86485 | 33125 ft | 514 kts | 49° |
| 2026-04-11 12:34 | 31.34080 | -9.79489 | 33131 ft | 514 kts | 49° |
| 2026-04-11 12:35 | 31.38061 | -9.72572 | 33127 ft | 508 kts | 44° |
| 2026-04-11 12:35 | 31.42953 | -9.66826 | 33127 ft | 492 kts | 31° |
| 2026-04-11 12:36 | 31.48550 | -9.62470 | 33133 ft | 480 kts | 23° |
| 2026-04-11 12:36 | 31.54270 | -9.58439 | 33138 ft | 480 kts | 23° |
| 2026-04-11 12:37 | 31.59981 | -9.54367 | 33127 ft | 480 kts | 23° |
| 2026-04-11 12:37 | 31.65669 | -9.50263 | 33130 ft | 480 kts | 24° |
| 2026-04-11 12:38 | 31.71351 | -9.46147 | 33126 ft | 480 kts | 24° |
| 2026-04-11 12:38 | 31.77028 | -9.42026 | 33124 ft | 480 kts | 24° |
| 2026-04-11 12:39 | 31.82711 | -9.37906 | 33127 ft | 479 kts | 24° |
| 2026-04-11 12:39 | 31.88376 | -9.33784 | 33123 ft | 479 kts | 24° |
| 2026-04-11 12:40 | 31.94043 | -9.29658 | 33125 ft | 479 kts | 24° |
| 2026-04-11 12:40 | 31.99672 | -9.25556 | 33119 ft | 479 kts | 23° |
| 2026-04-11 12:41 | 32.05318 | -9.21429 | 33124 ft | 476 kts | 24° |
| 2026-04-11 12:41 | 32.10918 | -9.17325 | 33120 ft | 472 kts | 24° |
| 2026-04-11 12:42 | 32.16481 | -9.13260 | 33114 ft | 469 kts | 23° |
| 2026-04-11 12:42 | 32.21998 | -9.09206 | 33112 ft | 466 kts | 23° |
| 2026-04-11 12:43 | 32.30238 | -9.03155 | 33109 ft | 464 kts | 23° |
| 2026-04-11 12:43 | 32.35709 | -8.99130 | 33115 ft | 463 kts | 23° |
| 2026-04-11 12:44 | 32.41177 | -8.95097 | 33114 ft | 463 kts | 23° |
| 2026-04-11 12:44 | 32.46638 | -8.91070 | 33110 ft | 462 kts | 23° |
| 2026-04-11 12:45 | 32.52093 | -8.87045 | 33092 ft | 461 kts | 23° |
| 2026-04-11 12:45 | 32.57535 | -8.83012 | 33104 ft | 461 kts | 23° |
| 2026-04-11 12:46 | 32.62963 | -8.78978 | 33101 ft | 460 kts | 23° |
| 2026-04-11 12:46 | 32.68385 | -8.74951 | 33102 ft | 459 kts | 23° |
| 2026-04-11 12:47 | 32.73799 | -8.70928 | 33102 ft | 459 kts | 23° |
| 2026-04-11 12:47 | 32.79204 | -8.66904 | 33097 ft | 458 kts | 23° |
| 2026-04-11 12:48 | 32.84601 | -8.62881 | 33090 ft | 458 kts | 23° |
| 2026-04-11 12:48 | 32.89991 | -8.58850 | 33094 ft | 457 kts | 23° |
| 2026-04-11 12:49 | 32.95364 | -8.54825 | 33089 ft | 455 kts | 24° |
| 2026-04-11 12:49 | 33.00726 | -8.50813 | 33085 ft | 455 kts | 24° |
| 2026-04-11 12:50 | 33.06077 | -8.46801 | 33091 ft | 454 kts | 24° |
| 2026-04-11 12:50 | 33.11416 | -8.42787 | 33097 ft | 453 kts | 24° |
| 2026-04-11 12:51 | 33.16711 | -8.38802 | 33087 ft | 453 kts | 24° |
| 2026-04-11 12:51 | 33.22039 | -8.34792 | 33083 ft | 452 kts | 24° |
| 2026-04-11 12:52 | 33.27348 | -8.30790 | 33079 ft | 450 kts | 24° |
| 2026-04-11 12:52 | 33.32635 | -8.26814 | 33085 ft | 448 kts | 24° |
| 2026-04-11 12:53 | 33.37902 | -8.22844 | 33084 ft | 447 kts | 24° |
| 2026-04-11 12:53 | 33.43149 | -8.18878 | 33070 ft | 445 kts | 24° |
| 2026-04-11 12:54 | 33.48369 | -8.14930 | 33077 ft | 443 kts | 24° |
| 2026-04-11 12:54 | 33.53564 | -8.10991 | 33073 ft | 441 kts | 24° |
| 2026-04-11 12:55 | 33.58742 | -8.07065 | 33073 ft | 440 kts | 24° |
| 2026-04-11 12:55 | 33.63909 | -8.03142 | 33071 ft | 439 kts | 24° |
| 2026-04-11 12:56 | 33.69073 | -7.99213 | 33077 ft | 440 kts | 24° |
| 2026-04-11 12:56 | 33.74231 | -7.95279 | 33074 ft | 439 kts | 25° |
| 2026-04-11 12:57 | 33.79388 | -7.91346 | 33074 ft | 439 kts | 25° |
| 2026-04-11 12:57 | 33.84537 | -7.87407 | 33074 ft | 439 kts | 25° |
| 2026-04-11 12:58 | 33.89688 | -7.83463 | 33074 ft | 439 kts | 25° |
| 2026-04-11 12:58 | 33.94842 | -7.79515 | 33065 ft | 439 kts | 25° |
| 2026-04-11 12:59 | 33.99989 | -7.75561 | 33064 ft | 439 kts | 25° |
| 2026-04-11 12:59 | 34.05140 | -7.71601 | 33070 ft | 439 kts | 25° |
| 2026-04-11 13:00 | 34.10288 | -7.67636 | 33071 ft | 440 kts | 25° |
| 2026-04-11 13:00 | 34.15453 | -7.63653 | 33070 ft | 440 kts | 25° |
| 2026-04-11 13:01 | 34.23154 | -7.57706 | 33071 ft | 440 kts | 25° |
| 2026-04-11 13:02 | 34.28351 | -7.53690 | 33066 ft | 441 kts | 26° |
| 2026-04-11 13:02 | 34.33496 | -7.49699 | 33066 ft | 443 kts | 26° |
| 2026-04-11 13:03 | 34.38704 | -7.45650 | 33064 ft | 446 kts | 26° |
| 2026-04-11 13:03 | 34.43940 | -7.41583 | 33048 ft | 448 kts | 27° |
| 2026-04-11 13:04 | 34.49201 | -7.37489 | 33035 ft | 450 kts | 27° |
| 2026-04-11 13:04 | 34.54482 | -7.33371 | 33025 ft | 452 kts | 27° |
| 2026-04-11 13:05 | 34.59770 | -7.29239 | 33026 ft | 453 kts | 28° |
| 2026-04-11 13:05 | 34.65069 | -7.25095 | 33027 ft | 453 kts | 28° |
| 2026-04-11 13:06 | 34.70372 | -7.20939 | 33026 ft | 454 kts | 28° |
| 2026-04-11 13:06 | 34.75684 | -7.16770 | 33026 ft | 455 kts | 28° |
| 2026-04-11 13:07 | 34.81004 | -7.12588 | 33024 ft | 456 kts | 29° |
| 2026-04-11 13:07 | 34.86344 | -7.08389 | 33021 ft | 458 kts | 29° |
| 2026-04-11 13:08 | 34.91695 | -7.04171 | 33020 ft | 459 kts | 29° |
| 2026-04-11 13:08 | 34.97058 | -6.99934 | 33013 ft | 460 kts | 30° |
| 2026-04-11 13:09 | 35.02421 | -6.95693 | 33002 ft | 459 kts | 30° |
| 2026-04-11 13:09 | 35.07781 | -6.91449 | 33005 ft | 459 kts | 30° |
| 2026-04-11 13:10 | 35.13151 | -6.87191 | 32999 ft | 461 kts | 30° |
| 2026-04-11 13:10 | 35.18524 | -6.82917 | 33000 ft | 462 kts | 30° |
| 2026-04-11 13:11 | 35.23922 | -6.78626 | 33001 ft | 464 kts | 31° |
| 2026-04-11 13:11 | 35.29335 | -6.74306 | 32998 ft | 465 kts | 31° |
| 2026-04-11 13:12 | 35.34755 | -6.69978 | 32998 ft | 466 kts | 31° |
| 2026-04-11 13:12 | 35.40227 | -6.65725 | 32981 ft | 465 kts | 30° |
| 2026-04-11 13:13 | 35.45729 | -6.61519 | 32980 ft | 467 kts | 30° |
| 2026-04-11 13:13 | 35.51233 | -6.57285 | 32972 ft | 466 kts | 31° |
| 2026-04-11 13:14 | 35.56748 | -6.53025 | 32977 ft | 470 kts | 31° |
| 2026-04-11 13:14 | 35.62303 | -6.48726 | 32982 ft | 473 kts | 31° |
| 2026-04-11 13:15 | 35.67889 | -6.44407 | 32963 ft | 476 kts | 32° |
| 2026-04-11 13:15 | 35.73488 | -6.40048 | 32964 ft | 477 kts | 32° |
| 2026-04-11 13:16 | 35.79083 | -6.35682 | 32979 ft | 476 kts | 32° |
| 2026-04-11 13:16 | 35.84674 | -6.31309 | 32963 ft | 475 kts | 33° |
| 2026-04-11 13:17 | 35.90136 | -6.26684 | 32978 ft | 478 kts | 35° |
| 2026-04-11 13:17 | 35.95574 | -6.21957 | 32975 ft | 478 kts | 35° |
| 2026-04-11 13:18 | 36.01031 | -6.17264 | 32977 ft | 478 kts | 35° |
| 2026-04-11 13:18 | 36.06509 | -6.12562 | 32964 ft | 480 kts | 35° |
| 2026-04-11 13:19 | 36.11069 | -6.08648 | 32961 ft | 481 kts | 35° |
| 2026-04-11 13:19 | 36.16554 | -6.03923 | 32961 ft | 481 kts | 35° |
| 2026-04-11 13:20 | 36.22043 | -5.99197 | 32969 ft | 480 kts | 36° |
| 2026-04-11 13:20 | 36.27086 | -5.93796 | 32955 ft | 479 kts | 45° |
| 2026-04-11 13:21 | 36.31744 | -5.87882 | 32952 ft | 479 kts | 46° |
| 2026-04-11 13:21 | 36.36403 | -5.81977 | 32946 ft | 478 kts | 46° |
| 2026-04-11 13:22 | 36.41062 | -5.76090 | 32942 ft | 477 kts | 46° |
| 2026-04-11 13:22 | 36.45727 | -5.70219 | 32944 ft | 478 kts | 46° |
| 2026-04-11 13:23 | 36.50399 | -5.64332 | 32945 ft | 479 kts | 46° |
| 2026-04-11 13:23 | 36.55061 | -5.58426 | 32948 ft | 478 kts | 46° |
| 2026-04-11 13:24 | 36.59735 | -5.52517 | 32927 ft | 480 kts | 47° |
| 2026-04-11 13:24 | 36.64422 | -5.46570 | 32940 ft | 482 kts | 47° |
| 2026-04-11 13:25 | 36.69120 | -5.40608 | 32941 ft | 483 kts | 47° |
| 2026-04-11 13:25 | 36.73820 | -5.34626 | 32948 ft | 483 kts | 47° |
| 2026-04-11 13:26 | 36.78522 | -5.28631 | 32935 ft | 483 kts | 47° |
| 2026-04-11 13:26 | 36.83215 | -5.22635 | 32938 ft | 482 kts | 48° |
| 2026-04-11 13:27 | 36.87896 | -5.16641 | 32927 ft | 482 kts | 48° |
| 2026-04-11 13:27 | 36.92570 | -5.10644 | 32926 ft | 482 kts | 48° |
| 2026-04-11 13:28 | 36.97241 | -5.04641 | 32925 ft | 482 kts | 48° |
| 2026-04-11 13:28 | 37.01913 | -4.98636 | 32930 ft | 482 kts | 47° |
| 2026-04-11 13:29 | 37.07223 | -4.93455 | 32925 ft | 488 kts | 34° |
| 2026-04-11 13:29 | 37.13346 | -4.89738 | 32926 ft | 492 kts | 25° |
| 2026-04-11 13:30 | 37.19699 | -4.86519 | 32928 ft | 493 kts | 25° |
| 2026-04-11 13:30 | 37.26065 | -4.83269 | 32930 ft | 495 kts | 25° |
| 2026-04-11 13:31 | 37.32439 | -4.79958 | 32928 ft | 497 kts | 25° |
| 2026-04-11 13:31 | 37.38823 | -4.76612 | 32919 ft | 498 kts | 25° |
| 2026-04-11 13:32 | 37.45220 | -4.73248 | 32914 ft | 499 kts | 26° |
| 2026-04-11 13:32 | 37.51640 | -4.69867 | 32914 ft | 501 kts | 26° |
| 2026-04-11 13:33 | 37.58095 | -4.66466 | 32918 ft | 504 kts | 26° |
| 2026-04-11 13:33 | 37.64580 | -4.63042 | 32911 ft | 507 kts | 26° |
| 2026-04-11 13:34 | 37.71100 | -4.59595 | 32919 ft | 509 kts | 26° |
| 2026-04-11 13:34 | 37.77601 | -4.56151 | 32914 ft | 511 kts | 26° |
| 2026-04-11 13:35 | 37.84159 | -4.52667 | 32915 ft | 512 kts | 26° |
| 2026-04-11 13:35 | 37.90760 | -4.49157 | 32916 ft | 511 kts | 26° |
| 2026-04-11 13:36 | 37.97327 | -4.45668 | 32916 ft | 512 kts | 26° |
| 2026-04-11 13:36 | 38.03854 | -4.42192 | 32922 ft | 513 kts | 26° |
| 2026-04-11 13:37 | 38.10440 | -4.38674 | 32920 ft | 514 kts | 26° |
| 2026-04-11 13:37 | 38.17033 | -4.35130 | 32917 ft | 515 kts | 26° |
| 2026-04-11 13:38 | 38.23625 | -4.31582 | 32916 ft | 514 kts | 26° |
| 2026-04-11 13:38 | 38.30208 | -4.28023 | 32912 ft | 513 kts | 26° |
| 2026-04-11 13:39 | 38.36781 | -4.24463 | 32912 ft | 513 kts | 26° |
| 2026-04-11 13:39 | 38.43349 | -4.20901 | 32917 ft | 513 kts | 26° |
| 2026-04-11 13:40 | 38.49918 | -4.17332 | 32918 ft | 513 kts | 26° |
| 2026-04-11 13:40 | 38.56485 | -4.13761 | 32914 ft | 512 kts | 26° |
| 2026-04-11 13:41 | 38.63046 | -4.10180 | 32929 ft | 513 kts | 26° |
| 2026-04-11 13:41 | 38.69612 | -4.06592 | 32930 ft | 513 kts | 26° |
| 2026-04-11 13:42 | 38.76179 | -4.02998 | 32930 ft | 513 kts | 26° |
| 2026-04-11 13:42 | 38.82731 | -3.99403 | 32936 ft | 512 kts | 26° |
| 2026-04-11 13:43 | 38.89290 | -3.95802 | 32933 ft | 513 kts | 26° |
| 2026-04-11 13:43 | 38.95853 | -3.92188 | 32938 ft | 514 kts | 26° |
| 2026-04-11 13:44 | 39.02438 | -3.88558 | 32942 ft | 515 kts | 26° |
| 2026-04-11 13:44 | 39.09038 | -3.84926 | 32948 ft | 516 kts | 25° |
| 2026-04-11 13:45 | 39.15646 | -3.81279 | 32946 ft | 517 kts | 25° |
| 2026-04-11 13:45 | 39.22249 | -3.77621 | 32951 ft | 516 kts | 25° |
| 2026-04-11 13:46 | 39.28846 | -3.73958 | 32954 ft | 516 kts | 25° |
| 2026-04-11 13:46 | 39.35395 | -3.70318 | 32940 ft | 515 kts | 25° |
| 2026-04-11 13:47 | 39.41980 | -3.66652 | 32945 ft | 515 kts | 25° |
| 2026-04-11 13:47 | 39.48564 | -3.62976 | 32949 ft | 516 kts | 25° |
| 2026-04-11 13:48 | 39.55143 | -3.59296 | 32958 ft | 516 kts | 25° |
| 2026-04-11 13:48 | 39.61733 | -3.55606 | 32951 ft | 516 kts | 25° |
| 2026-04-11 13:49 | 39.68324 | -3.51906 | 32955 ft | 516 kts | 25° |
| 2026-04-11 13:49 | 39.74912 | -3.48199 | 32954 ft | 516 kts | 25° |
| 2026-04-11 13:50 | 39.81252 | -3.43887 | 32951 ft | 513 kts | 35° |
| 2026-04-11 13:50 | 39.87171 | -3.38698 | 32955 ft | 513 kts | 36° |
| 2026-04-11 13:51 | 39.93098 | -3.33513 | 32961 ft | 513 kts | 36° |
| 2026-04-11 13:51 | 39.99047 | -3.28360 | 32966 ft | 513 kts | 36° |
| 2026-04-11 13:52 | 40.05004 | -3.23221 | 32953 ft | 514 kts | 35° |
| 2026-04-11 13:52 | 40.10974 | -3.18052 | 32952 ft | 515 kts | 35° |
| 2026-04-11 13:53 | 40.16954 | -3.12856 | 32948 ft | 516 kts | 35° |
| 2026-04-11 13:53 | 40.22938 | -3.07644 | 32945 ft | 517 kts | 35° |
| 2026-04-11 13:54 | 40.28923 | -3.02430 | 32944 ft | 517 kts | 34° |
| 2026-04-11 13:54 | 40.34908 | -2.97209 | 32953 ft | 517 kts | 34° |
| 2026-04-11 13:55 | 40.40895 | -2.91979 | 32945 ft | 517 kts | 34° |
| 2026-04-11 13:55 | 40.46876 | -2.86735 | 32945 ft | 517 kts | 34° |
| 2026-04-11 13:56 | 40.52847 | -2.81485 | 32950 ft | 516 kts | 34° |
| 2026-04-11 13:56 | 40.58805 | -2.76239 | 32952 ft | 516 kts | 34° |
| 2026-04-11 13:57 | 40.64764 | -2.70981 | 32957 ft | 515 kts | 34° |
| 2026-04-11 13:57 | 40.70726 | -2.65711 | 32955 ft | 517 kts | 34° |
| 2026-04-11 13:58 | 40.76695 | -2.60424 | 32955 ft | 517 kts | 34° |
| 2026-04-11 13:58 | 40.82632 | -2.55156 | 32952 ft | 518 kts | 34° |
| 2026-04-11 13:59 | 40.88612 | -2.49833 | 32957 ft | 518 kts | 34° |
| 2026-04-11 13:59 | 40.94595 | -2.44491 | 32963 ft | 519 kts | 34° |
| 2026-04-11 14:00 | 41.00582 | -2.39143 | 32977 ft | 519 kts | 34° |
| 2026-04-11 14:00 | 41.09194 | -2.30440 | 32966 ft | 519 kts | 39° |
| 2026-04-11 14:01 | 41.14794 | -2.24409 | 32964 ft | 519 kts | 39° |
| 2026-04-11 14:01 | 41.20424 | -2.18371 | 32961 ft | 520 kts | 39° |
| 2026-04-11 14:02 | 41.26060 | -2.12354 | 32978 ft | 520 kts | 39° |
| 2026-04-11 14:02 | 41.31704 | -2.06328 | 32971 ft | 521 kts | 39° |
| 2026-04-11 14:03 | 41.37352 | -2.00279 | 32979 ft | 521 kts | 39° |
| 2026-04-11 14:03 | 41.43001 | -1.94216 | 32970 ft | 522 kts | 39° |
| 2026-04-11 14:04 | 41.48664 | -1.88128 | 32982 ft | 523 kts | 39° |
| 2026-04-11 14:04 | 41.54320 | -1.82024 | 32981 ft | 523 kts | 39° |
| 2026-04-11 14:05 | 41.59023 | -1.76939 | 32980 ft | 523 kts | 39° |
| 2026-04-11 14:05 | 41.64666 | -1.70829 | 32983 ft | 523 kts | 39° |
| 2026-04-11 14:06 | 41.70314 | -1.64696 | 32990 ft | 523 kts | 39° |
| 2026-04-11 14:06 | 41.75960 | -1.58551 | 32983 ft | 523 kts | 39° |
| 2026-04-11 14:07 | 41.81599 | -1.52398 | 32995 ft | 522 kts | 39° |
| 2026-04-11 14:07 | 41.87224 | -1.46245 | 32981 ft | 522 kts | 39° |
| 2026-04-11 14:08 | 41.92851 | -1.40078 | 32989 ft | 522 kts | 39° |
| 2026-04-11 14:08 | 41.98477 | -1.33899 | 32980 ft | 522 kts | 39° |
| 2026-04-11 14:09 | 42.04099 | -1.27706 | 32987 ft | 523 kts | 39° |
| 2026-04-11 14:09 | 42.09730 | -1.21486 | 32997 ft | 524 kts | 39° |
| 2026-04-11 14:10 | 42.15377 | -1.15241 | 33000 ft | 526 kts | 39° |
| 2026-04-11 14:10 | 42.21034 | -1.08953 | 32986 ft | 527 kts | 39° |
| 2026-04-11 14:11 | 42.26694 | -1.02643 | 33002 ft | 528 kts | 39° |
| 2026-04-11 14:11 | 42.32355 | -0.96318 | 33002 ft | 528 kts | 39° |
| 2026-04-11 14:12 | 42.38013 | -0.89984 | 33011 ft | 528 kts | 39° |
| 2026-04-11 14:12 | 42.43477 | -0.83362 | 33008 ft | 528 kts | 46° |
| 2026-04-11 14:13 | 42.48096 | -0.75642 | 33011 ft | 528 kts | 53° |
| 2026-04-11 14:13 | 42.52515 | -0.67697 | 33005 ft | 528 kts | 53° |
| 2026-04-11 14:14 | 42.56962 | -0.59778 | 33015 ft | 528 kts | 53° |
| 2026-04-11 14:14 | 42.61440 | -0.51870 | 33017 ft | 529 kts | 53° |
| 2026-04-11 14:15 | 42.65922 | -0.43942 | 33020 ft | 529 kts | 53° |
| 2026-04-11 14:15 | 42.70398 | -0.35994 | 33028 ft | 530 kts | 53° |
| 2026-04-11 14:16 | 42.74859 | -0.28062 | 33052 ft | 528 kts | 53° |
| 2026-04-11 14:16 | 42.79311 | -0.20096 | 33058 ft | 530 kts | 53° |
| 2026-04-11 14:17 | 42.83868 | -0.12202 | 33066 ft | 530 kts | 52° |
| 2026-04-11 14:17 | 42.88522 | -0.04414 | 33064 ft | 530 kts | 51° |
| 2026-04-11 14:18 | 42.93165 | 0.03388 | 33086 ft | 530 kts | 51° |
| 2026-04-11 14:18 | 42.97749 | 0.11164 | 33083 ft | 520 kts | 51° |
| 2026-04-11 14:19 | 43.02238 | 0.18820 | 33099 ft | 521 kts | 51° |
| 2026-04-11 14:19 | 43.06770 | 0.26578 | 33097 ft | 523 kts | 51° |
| 2026-04-11 14:20 | 43.11320 | 0.34376 | 33097 ft | 525 kts | 51° |
| 2026-04-11 14:20 | 43.15866 | 0.42193 | 33091 ft | 525 kts | 51° |
| 2026-04-11 14:21 | 43.20414 | 0.50031 | 33085 ft | 525 kts | 51° |
| 2026-04-11 14:21 | 43.24958 | 0.57882 | 33081 ft | 525 kts | 51° |
| 2026-04-11 14:22 | 43.29493 | 0.65743 | 33087 ft | 525 kts | 51° |
| 2026-04-11 14:22 | 43.34021 | 0.73609 | 33081 ft | 525 kts | 51° |
| 2026-04-11 14:23 | 43.38545 | 0.81491 | 33072 ft | 525 kts | 51° |
| 2026-04-11 14:23 | 43.43051 | 0.89368 | 33076 ft | 523 kts | 52° |
| 2026-04-11 14:24 | 43.47552 | 0.97245 | 33074 ft | 522 kts | 51° |
| 2026-04-11 14:24 | 43.52036 | 1.05117 | 33073 ft | 522 kts | 51° |
| 2026-04-11 14:25 | 43.56509 | 1.12995 | 33074 ft | 521 kts | 52° |
| 2026-04-11 14:25 | 43.60972 | 1.20871 | 33071 ft | 520 kts | 52° |
| 2026-04-11 14:26 | 43.65414 | 1.28741 | 33074 ft | 519 kts | 52° |
| 2026-04-11 14:26 | 43.69849 | 1.36612 | 33075 ft | 518 kts | 52° |
| 2026-04-11 14:27 | 43.74267 | 1.44478 | 33075 ft | 518 kts | 52° |
| 2026-04-11 14:27 | 43.78674 | 1.52345 | 33074 ft | 517 kts | 52° |
| 2026-04-11 14:28 | 43.83072 | 1.60219 | 33077 ft | 517 kts | 52° |
| 2026-04-11 14:28 | 43.87464 | 1.68101 | 33073 ft | 517 kts | 52° |
| 2026-04-11 14:29 | 43.91849 | 1.75991 | 33075 ft | 516 kts | 52° |
| 2026-04-11 14:29 | 43.96222 | 1.83882 | 33077 ft | 516 kts | 52° |
| 2026-04-11 14:30 | 44.00559 | 1.91814 | 33071 ft | 515 kts | 53° |
| 2026-04-11 14:30 | 44.04874 | 1.99769 | 33062 ft | 515 kts | 53° |
| 2026-04-11 14:31 | 44.09186 | 2.07737 | 33066 ft | 516 kts | 53° |
| 2026-04-11 14:31 | 44.13502 | 2.15713 | 33062 ft | 515 kts | 53° |
| 2026-04-11 14:32 | 44.17805 | 2.23682 | 33056 ft | 515 kts | 53° |
| 2026-04-11 14:32 | 44.22103 | 2.31671 | 33054 ft | 515 kts | 53° |
| 2026-04-11 14:33 | 44.26397 | 2.39680 | 33047 ft | 516 kts | 53° |
| 2026-04-11 14:33 | 44.30693 | 2.47710 | 33048 ft | 517 kts | 53° |
| 2026-04-11 14:34 | 44.35002 | 2.55787 | 33048 ft | 518 kts | 53° |
| 2026-04-11 14:34 | 44.39305 | 2.63875 | 33048 ft | 519 kts | 54° |
| 2026-04-11 14:35 | 44.43609 | 2.71988 | 33040 ft | 520 kts | 54° |
| 2026-04-11 14:35 | 44.47920 | 2.80129 | 33050 ft | 521 kts | 54° |
| 2026-04-11 14:36 | 44.52232 | 2.88306 | 33045 ft | 522 kts | 54° |
| 2026-04-11 14:36 | 44.56541 | 2.96497 | 33037 ft | 522 kts | 54° |
| 2026-04-11 14:37 | 44.60847 | 3.04707 | 33027 ft | 523 kts | 54° |
| 2026-04-11 14:37 | 44.65152 | 3.12936 | 33029 ft | 523 kts | 54° |
| 2026-04-11 14:38 | 44.69447 | 3.21175 | 33017 ft | 522 kts | 54° |
| 2026-04-11 14:38 | 44.73738 | 3.29427 | 33017 ft | 523 kts | 54° |
| 2026-04-11 14:39 | 44.78025 | 3.37693 | 33008 ft | 523 kts | 54° |
| 2026-04-11 14:39 | 44.82280 | 3.45919 | 32980 ft | 523 kts | 54° |
| 2026-04-11 14:40 | 44.86559 | 3.54219 | 32978 ft | 524 kts | 54° |
| 2026-04-11 14:40 | 44.90832 | 3.62535 | 32975 ft | 524 kts | 55° |
| 2026-04-11 14:41 | 44.95106 | 3.70864 | 32977 ft | 524 kts | 55° |
| 2026-04-11 14:41 | 44.99371 | 3.79205 | 32959 ft | 524 kts | 55° |
| 2026-04-11 14:42 | 45.03632 | 3.87572 | 32977 ft | 524 kts | 55° |
| 2026-04-11 14:43 | 45.10018 | 4.00153 | 32963 ft | 525 kts | 55° |
| 2026-04-11 14:43 | 45.14274 | 4.08562 | 32955 ft | 526 kts | 55° |
| 2026-04-11 14:44 | 45.18531 | 4.17003 | 32953 ft | 526 kts | 55° |
| 2026-04-11 14:44 | 45.23100 | 4.25087 | 32944 ft | 526 kts | 47° |
| 2026-04-11 14:45 | 45.28560 | 4.31966 | 32941 ft | 525 kts | 39° |
| 2026-04-11 14:45 | 45.34056 | 4.38789 | 32934 ft | 525 kts | 46° |
| 2026-04-11 14:46 | 45.38768 | 4.46720 | 32941 ft | 525 kts | 52° |
| 2026-04-11 14:46 | 45.43364 | 4.54810 | 32938 ft | 526 kts | 51° |
| 2026-04-11 14:47 | 45.48004 | 4.62867 | 32931 ft | 526 kts | 51° |
| 2026-04-11 14:47 | 45.52672 | 4.70916 | 32926 ft | 527 kts | 51° |
| 2026-04-11 14:48 | 45.57341 | 4.78993 | 32923 ft | 527 kts | 51° |
| 2026-04-11 14:48 | 45.61999 | 4.87085 | 32919 ft | 528 kts | 51° |
| 2026-04-11 14:49 | 45.66652 | 4.95192 | 32913 ft | 527 kts | 51° |
| 2026-04-11 14:49 | 45.72907 | 5.07951 | 32912 ft | 521 kts | 73° |
| 2026-04-11 14:50 | 45.73688 | 5.16387 | 32917 ft | 514 kts | 97° |
| 2026-04-11 14:50 | 45.72285 | 5.26298 | 32930 ft | 509 kts | 106° |
| 2026-04-11 14:51 | 45.70779 | 5.36255 | 32922 ft | 514 kts | 104° |
| 2026-04-11 14:51 | 45.69364 | 5.46321 | 32929 ft | 517 kts | 104° |
| 2026-04-11 14:52 | 45.68609 | 5.56494 | 32941 ft | 522 kts | 84° |
| 2026-04-11 14:52 | 45.69538 | 5.61518 | 32952 ft | 527 kts | 69° |
| 2026-04-11 14:52 | 45.71306 | 5.66108 | 32942 ft | 529 kts | 53° |
| 2026-04-11 14:53 | 45.76221 | 5.73908 | 32942 ft | 529 kts | 47° |
| 2026-04-11 14:53 | 45.81145 | 5.81765 | 32951 ft | 531 kts | 48° |
| 2026-04-11 14:54 | 45.85991 | 5.89770 | 32954 ft | 531 kts | 49° |
| 2026-04-11 14:54 | 45.90867 | 5.97732 | 32958 ft | 530 kts | 46° |
| 2026-04-11 14:55 | 45.96281 | 6.04908 | 32964 ft | 530 kts | 40° |
| 2026-04-11 14:55 | 46.01816 | 6.11962 | 32958 ft | 528 kts | 41° |
| 2026-04-11 14:56 | 46.07273 | 6.19060 | 32970 ft | 528 kts | 41° |
| 2026-04-11 14:56 | 46.12703 | 6.26165 | 32958 ft | 527 kts | 41° |
| 2026-04-11 14:57 | 46.18137 | 6.33268 | 32968 ft | 527 kts | 41° |
| 2026-04-11 14:57 | 46.23567 | 6.40376 | 32960 ft | 527 kts | 41° |
| 2026-04-11 14:58 | 46.28998 | 6.47524 | 32967 ft | 528 kts | 41° |
| 2026-04-11 14:58 | 46.34423 | 6.54678 | 32959 ft | 528 kts | 41° |
| 2026-04-11 14:59 | 46.39843 | 6.61855 | 32960 ft | 529 kts | 41° |
| 2026-04-11 14:59 | 46.45173 | 6.69186 | 32952 ft | 529 kts | 47° |
| 2026-04-11 15:00 | 46.49810 | 6.77463 | 32975 ft | 528 kts | 52° |
| 2026-04-11 15:00 | 46.54365 | 6.85834 | 32967 ft | 529 kts | 51° |
| 2026-04-11 15:01 | 46.58988 | 6.94148 | 32972 ft | 528 kts | 51° |
| 2026-04-11 15:01 | 46.63613 | 7.02464 | 32972 ft | 529 kts | 51° |
| 2026-04-11 15:02 | 46.68229 | 7.10812 | 32962 ft | 529 kts | 51° |
| 2026-04-11 15:02 | 46.72840 | 7.19166 | 32966 ft | 529 kts | 51° |
| 2026-04-11 15:03 | 46.77446 | 7.27540 | 32957 ft | 530 kts | 51° |
| 2026-04-11 15:03 | 46.82065 | 7.35898 | 32953 ft | 529 kts | 51° |
| 2026-04-11 15:04 | 46.87045 | 7.43684 | 32942 ft | 527 kts | 40° |
| 2026-04-11 15:04 | 46.92827 | 7.50356 | 32951 ft | 525 kts | 36° |
| 2026-04-11 15:05 | 46.98643 | 7.56846 | 32951 ft | 526 kts | 36° |
| 2026-04-11 15:05 | 47.04404 | 7.63353 | 32949 ft | 527 kts | 36° |
| 2026-04-11 15:06 | 47.10187 | 7.69955 | 32954 ft | 526 kts | 37° |
| 2026-04-11 15:06 | 47.15957 | 7.76578 | 32952 ft | 526 kts | 37° |
| 2026-04-11 15:07 | 47.21749 | 7.83251 | 32955 ft | 526 kts | 37° |
| 2026-04-11 15:07 | 47.27511 | 7.89905 | 32947 ft | 526 kts | 37° |
| 2026-04-11 15:08 | 47.33242 | 7.96528 | 32944 ft | 527 kts | 37° |
| 2026-04-11 15:08 | 47.39016 | 8.03226 | 32939 ft | 528 kts | 37° |
| 2026-04-11 15:09 | 47.44786 | 8.09946 | 32933 ft | 528 kts | 36° |
| 2026-04-11 15:09 | 47.50545 | 8.16662 | 32931 ft | 527 kts | 37° |
| 2026-04-11 15:10 | 47.56293 | 8.23397 | 32930 ft | 527 kts | 37° |
| 2026-04-11 15:10 | 47.62054 | 8.30149 | 32940 ft | 527 kts | 37° |
| 2026-04-11 15:11 | 47.67836 | 8.36961 | 32932 ft | 527 kts | 37° |
| 2026-04-11 15:11 | 47.73538 | 8.43697 | 32936 ft | 528 kts | 37° |
| 2026-04-11 15:12 | 47.79284 | 8.50498 | 32936 ft | 528 kts | 37° |
| 2026-04-11 15:12 | 47.85021 | 8.57310 | 32936 ft | 527 kts | 37° |
| 2026-04-11 15:13 | 47.90744 | 8.64128 | 32932 ft | 526 kts | 37° |
| 2026-04-11 15:13 | 47.96450 | 8.70945 | 32935 ft | 525 kts | 37° |
| 2026-04-11 15:14 | 48.02145 | 8.77768 | 32924 ft | 525 kts | 37° |
| 2026-04-11 15:14 | 48.07874 | 8.84653 | 32925 ft | 525 kts | 36° |
| 2026-04-11 15:15 | 48.13621 | 8.91334 | 32912 ft | 521 kts | 29° |
| 2026-04-11 15:15 | 48.20184 | 8.95615 | 32930 ft | 512 kts | 11° |
| 2026-04-11 15:16 | 48.27138 | 8.97108 | 32842 ft | 501 kts | 0° |
| 2026-04-11 15:16 | 48.30598 | 8.97532 | 32720 ft | 497 kts | 0° |
| 2026-04-11 15:16 | 48.34037 | 8.97977 | 32526 ft | 496 kts | 1° |
| 2026-04-11 15:17 | 48.37473 | 8.98461 | 32285 ft | 496 kts | 1° |
| 2026-04-11 15:17 | 48.40902 | 8.98981 | 32075 ft | 495 kts | 1° |
| 2026-04-11 15:17 | 48.44310 | 8.99508 | 31791 ft | 488 kts | 1° |
| 2026-04-11 15:17 | 48.47669 | 9.00027 | 31167 ft | 482 kts | 1° |
| 2026-04-11 15:18 | 48.50992 | 9.00538 | 30506 ft | 478 kts | 1° |
| 2026-04-11 15:18 | 48.54289 | 9.01044 | 29909 ft | 473 kts | 1° |
| 2026-04-11 15:18 | 48.57543 | 9.01546 | 29347 ft | 467 kts | 1° |
| 2026-04-11 15:18 | 48.60751 | 9.02040 | 28781 ft | 461 kts | 1° |
| 2026-04-11 15:19 | 48.63918 | 9.02551 | 28208 ft | 456 kts | 2° |
| 2026-04-11 15:19 | 48.67045 | 9.03227 | 27629 ft | 452 kts | 4° |
| 2026-04-11 15:19 | 48.70129 | 9.03999 | 27075 ft | 447 kts | 5° |
| 2026-04-11 15:19 | 48.73179 | 9.04782 | 26515 ft | 442 kts | 5° |
| 2026-04-11 15:20 | 48.76196 | 9.05537 | 25956 ft | 436 kts | 4° |
| 2026-04-11 15:20 | 48.79132 | 9.06253 | 25435 ft | 431 kts | 4° |
| 2026-04-11 15:20 | 48.82114 | 9.06970 | 24881 ft | 426 kts | 4° |
| 2026-04-11 15:20 | 48.85028 | 9.07665 | 24318 ft | 422 kts | 4° |
| 2026-04-11 15:21 | 48.87914 | 9.08353 | 23792 ft | 417 kts | 4° |
| 2026-04-11 15:21 | 48.90770 | 9.08909 | 23286 ft | 410 kts | 1° |
| 2026-04-11 15:21 | 48.93597 | 9.09275 | 22718 ft | 407 kts | 360° |
| 2026-04-11 15:21 | 48.96377 | 9.09613 | 22120 ft | 405 kts | 0° |
| 2026-04-11 15:22 | 48.99169 | 9.09985 | 21521 ft | 403 kts | 0° |
| 2026-04-11 15:22 | 49.01949 | 9.10379 | 21066 ft | 398 kts | 1° |
| 2026-04-11 15:22 | 49.04693 | 9.10773 | 20533 ft | 395 kts | 1° |
| 2026-04-11 15:22 | 49.07423 | 9.11163 | 19925 ft | 394 kts | 1° |
| 2026-04-11 15:23 | 49.10149 | 9.11554 | 19360 ft | 392 kts | 1° |
| 2026-04-11 15:23 | 49.12857 | 9.11942 | 18843 ft | 389 kts | 1° |
| 2026-04-11 15:23 | 49.15534 | 9.12324 | 18333 ft | 386 kts | 1° |
| 2026-04-11 15:23 | 49.18195 | 9.12704 | 17803 ft | 383 kts | 1° |
| 2026-04-11 15:24 | 49.20840 | 9.13083 | 17265 ft | 381 kts | 1° |
| 2026-04-11 15:24 | 49.23465 | 9.13458 | 16744 ft | 377 kts | 1° |
| 2026-04-11 15:24 | 49.26072 | 9.13827 | 16215 ft | 375 kts | 1° |
| 2026-04-11 15:24 | 49.28675 | 9.14217 | 16022 ft | 381 kts | 3° |
| 2026-04-11 15:25 | 49.31293 | 9.14921 | 15741 ft | 383 kts | 8° |
| 2026-04-11 15:25 | 49.33892 | 9.15877 | 15167 ft | 385 kts | 10° |
| 2026-04-11 15:25 | 49.36498 | 9.16900 | 14737 ft | 378 kts | 10° |
| 2026-04-11 15:25 | 49.38994 | 9.17862 | 14345 ft | 370 kts | 10° |
| 2026-04-11 15:26 | 49.41474 | 9.18783 | 13907 ft | 365 kts | 9° |
| 2026-04-11 15:26 | 49.43936 | 9.19673 | 13386 ft | 362 kts | 9° |
| 2026-04-11 15:26 | 49.46376 | 9.20544 | 12829 ft | 360 kts | 9° |
| 2026-04-11 15:26 | 49.48809 | 9.21409 | 12266 ft | 358 kts | 9° |
| 2026-04-11 15:27 | 49.51225 | 9.22268 | 11745 ft | 355 kts | 9° |
| 2026-04-11 15:27 | 49.53621 | 9.23125 | 11187 ft | 352 kts | 9° |
| 2026-04-11 15:27 | 49.56007 | 9.23975 | 10571 ft | 352 kts | 10° |
| 2026-04-11 15:27 | 49.58395 | 9.24825 | 10139 ft | 353 kts | 10° |
| 2026-04-11 15:28 | 49.60821 | 9.25691 | 9995 ft | 358 kts | 11° |
| 2026-04-11 15:28 | 49.63207 | 9.26547 | 9916 ft | 344 kts | 11° |
| 2026-04-11 15:28 | 49.65469 | 9.27358 | 9900 ft | 325 kts | 11° |
| 2026-04-11 15:28 | 49.67618 | 9.28134 | 9904 ft | 309 kts | 10° |
| 2026-04-11 15:29 | 49.69659 | 9.28871 | 9906 ft | 295 kts | 10° |
| 2026-04-11 15:29 | 49.71672 | 9.29590 | 9934 ft | 299 kts | 10° |
| 2026-04-11 15:29 | 49.73696 | 9.30322 | 9939 ft | 297 kts | 10° |
| 2026-04-11 15:29 | 49.75706 | 9.31040 | 9929 ft | 296 kts | 10° |
| 2026-04-11 15:30 | 49.77702 | 9.31754 | 9933 ft | 293 kts | 10° |
| 2026-04-11 15:30 | 49.79686 | 9.32469 | 9931 ft | 293 kts | 10° |
| 2026-04-11 15:30 | 49.81669 | 9.33185 | 9923 ft | 292 kts | 10° |
| 2026-04-11 15:30 | 49.83645 | 9.33895 | 9935 ft | 291 kts | 10° |
| 2026-04-11 15:31 | 49.85616 | 9.34605 | 9757 ft | 289 kts | 9° |
| 2026-04-11 15:31 | 49.86921 | 9.34855 | 9448 ft | 285 kts | 357° |
| 2026-04-11 15:31 | 49.88899 | 9.34605 | 8947 ft | 286 kts | 349° |
| 2026-04-11 15:31 | 49.90875 | 9.34154 | 8470 ft | 287 kts | 349° |
| 2026-04-11 15:32 | 49.92827 | 9.33719 | 8333 ft | 281 kts | 350° |
| 2026-04-11 15:32 | 49.94765 | 9.33328 | 8236 ft | 282 kts | 351° |
| 2026-04-11 15:32 | 49.96734 | 9.32955 | 8155 ft | 287 kts | 351° |
| 2026-04-11 15:32 | 49.98726 | 9.32590 | 8064 ft | 289 kts | 352° |
| 2026-04-11 15:33 | 50.00718 | 9.32234 | 7947 ft | 288 kts | 352° |
| 2026-04-11 15:33 | 50.02699 | 9.31880 | 7862 ft | 287 kts | 352° |
| 2026-04-11 15:33 | 50.04670 | 9.31530 | 7828 ft | 284 kts | 352° |
| 2026-04-11 15:33 | 50.06634 | 9.31176 | 7830 ft | 285 kts | 352° |
| 2026-04-11 15:34 | 50.08614 | 9.30821 | 7827 ft | 287 kts | 352° |
| 2026-04-11 15:34 | 50.10602 | 9.30462 | 7836 ft | 288 kts | 352° |
| 2026-04-11 15:34 | 50.12592 | 9.30102 | 7842 ft | 288 kts | 352° |
| 2026-04-11 15:34 | 50.14585 | 9.29742 | 7822 ft | 289 kts | 352° |
| 2026-04-11 15:35 | 50.16577 | 9.29382 | 7851 ft | 288 kts | 352° |
| 2026-04-11 15:35 | 50.18565 | 9.29028 | 7825 ft | 288 kts | 352° |
| 2026-04-11 15:35 | 50.20551 | 9.28666 | 7820 ft | 285 kts | 349° |
| 2026-04-11 15:35 | 50.22378 | 9.27667 | 7822 ft | 278 kts | 323° |
| 2026-04-11 15:36 | 50.23693 | 9.25491 | 7852 ft | 278 kts | 299° |
| 2026-04-11 15:36 | 50.24477 | 9.22725 | 7833 ft | 280 kts | 288° |
| 2026-04-11 15:36 | 50.25136 | 9.19862 | 7819 ft | 279 kts | 288° |
| 2026-04-11 15:36 | 50.25795 | 9.17030 | 7829 ft | 275 kts | 288° |
| 2026-04-11 15:37 | 50.26450 | 9.14231 | 7821 ft | 273 kts | 288° |
| 2026-04-11 15:37 | 50.26890 | 9.11389 | 7815 ft | 271 kts | 268° |
| 2026-04-11 15:37 | 50.26525 | 9.08513 | 7830 ft | 272 kts | 248° |
| 2026-04-11 15:37 | 50.25858 | 9.05720 | 7858 ft | 275 kts | 248° |
| 2026-04-11 15:38 | 50.25199 | 9.02934 | 7899 ft | 273 kts | 248° |
| 2026-04-11 15:38 | 50.24542 | 9.00155 | 7914 ft | 272 kts | 249° |
| 2026-04-11 15:38 | 50.23890 | 8.97387 | 7916 ft | 270 kts | 249° |
| 2026-04-11 15:38 | 50.23239 | 8.94628 | 7910 ft | 272 kts | 249° |
| 2026-04-11 15:39 | 50.22584 | 8.91854 | 7917 ft | 273 kts | 249° |
| 2026-04-11 15:39 | 50.21928 | 8.89073 | 7920 ft | 273 kts | 249° |
| 2026-04-11 15:39 | 50.21273 | 8.86280 | 7922 ft | 274 kts | 249° |
| 2026-04-11 15:39 | 50.20623 | 8.83497 | 7903 ft | 273 kts | 248° |
| 2026-04-11 15:40 | 50.19966 | 8.80727 | 7909 ft | 272 kts | 248° |
| 2026-04-11 15:40 | 50.19309 | 8.77969 | 7911 ft | 271 kts | 248° |
| 2026-04-11 15:40 | 50.18657 | 8.75217 | 7923 ft | 271 kts | 248° |
| 2026-04-11 15:40 | 50.18006 | 8.72472 | 7916 ft | 271 kts | 248° |
| 2026-04-11 15:41 | 50.17353 | 8.69713 | 7912 ft | 270 kts | 248° |
| 2026-04-11 15:41 | 50.16704 | 8.66962 | 7916 ft | 270 kts | 248° |
| 2026-04-11 15:41 | 50.16052 | 8.64219 | 7914 ft | 270 kts | 248° |
| 2026-04-11 15:41 | 50.15398 | 8.61481 | 7911 ft | 269 kts | 248° |
| 2026-04-11 15:42 | 50.14745 | 8.58747 | 7916 ft | 270 kts | 248° |
| 2026-04-11 15:42 | 50.14089 | 8.55988 | 7726 ft | 274 kts | 248° |
| 2026-04-11 15:42 | 50.13423 | 8.53191 | 7436 ft | 275 kts | 248° |
| 2026-04-11 15:43 | 50.12121 | 8.47737 | 6910 ft | 264 kts | 248° |
| 2026-04-11 15:43 | 50.11475 | 8.45053 | 6666 ft | 264 kts | 248° |
| 2026-04-11 15:43 | 50.10832 | 8.42377 | 6414 ft | 264 kts | 248° |
| 2026-04-11 15:43 | 50.10181 | 8.39695 | 6164 ft | 265 kts | 247° |
| 2026-04-11 15:44 | 50.09543 | 8.37039 | 5920 ft | 267 kts | 247° |
| 2026-04-11 15:44 | 50.08879 | 8.34310 | 5669 ft | 267 kts | 247° |
| 2026-04-11 15:44 | 50.08231 | 8.31644 | 5437 ft | 267 kts | 248° |
| 2026-04-11 15:44 | 50.07579 | 8.28938 | 5194 ft | 267 kts | 247° |
| 2026-04-11 15:45 | 50.06921 | 8.26229 | 5106 ft | 260 kts | 247° |
| 2026-04-11 15:45 | 50.06283 | 8.23612 | 5042 ft | 260 kts | 247° |
| 2026-04-11 15:45 | 50.05648 | 8.21001 | 5052 ft | 263 kts | 247° |
| 2026-04-11 15:45 | 50.04985 | 8.18285 | 5033 ft | 267 kts | 247° |
| 2026-04-11 15:46 | 50.04329 | 8.15598 | 5052 ft | 263 kts | 247° |
| 2026-04-11 15:46 | 50.03689 | 8.12979 | 5045 ft | 262 kts | 247° |
| 2026-04-11 15:46 | 50.03030 | 8.10286 | 5033 ft | 263 kts | 247° |
| 2026-04-11 15:46 | 50.02397 | 8.07669 | 5029 ft | 262 kts | 247° |
| 2026-04-11 15:47 | 50.01525 | 8.05274 | 5018 ft | 249 kts | 224° |
| 2026-04-11 15:47 | 50.00108 | 8.03911 | 5013 ft | 235 kts | 193° |
| 2026-04-11 15:47 | 49.98529 | 8.03941 | 5048 ft | 221 kts | 162° |
| 2026-04-11 15:47 | 49.97259 | 8.05300 | 5034 ft | 230 kts | 130° |
| 2026-04-11 15:48 | 49.96591 | 8.07541 | 4913 ft | 232 kts | 107° |
| 2026-04-11 15:48 | 49.96234 | 8.09995 | 4705 ft | 239 kts | 104° |
| 2026-04-11 15:48 | 49.95903 | 8.12558 | 4450 ft | 239 kts | 104° |
| 2026-04-11 15:48 | 49.95672 | 8.15030 | 4165 ft | 232 kts | 90° |
| 2026-04-11 15:49 | 49.96024 | 8.17436 | 4075 ft | 228 kts | 75° |
| 2026-04-11 15:49 | 49.96539 | 8.19787 | 4049 ft | 232 kts | 73° |
| 2026-04-11 15:49 | 49.97095 | 8.22162 | 4056 ft | 235 kts | 72° |
| 2026-04-11 15:49 | 49.97663 | 8.24509 | 3882 ft | 229 kts | 72° |
| 2026-04-11 15:50 | 49.98204 | 8.26752 | 3558 ft | 214 kts | 72° |
| 2026-04-11 15:50 | 49.98710 | 8.28869 | 3263 ft | 207 kts | 72° |
| 2026-04-11 15:50 | 49.99217 | 8.30981 | 2981 ft | 209 kts | 72° |
| 2026-04-11 15:50 | 49.99722 | 8.33091 | 2677 ft | 208 kts | 72° |
| 2026-04-11 15:51 | 50.00223 | 8.35169 | 2377 ft | 201 kts | 72° |
| 2026-04-11 15:51 | 50.00696 | 8.37145 | 2121 ft | 190 kts | 72° |
| 2026-04-11 15:51 | 50.01151 | 8.39050 | 1863 ft | 186 kts | 72° |
| 2026-04-11 15:51 | 50.01598 | 8.40921 | 1586 ft | 182 kts | 72° |
| 2026-04-11 15:52 | 50.02034 | 8.42732 | 1311 ft | 170 kts | 72° |
| 2026-04-11 15:52 | 50.02438 | 8.44427 | 1103 ft | 167 kts | 72° |
| 2026-04-11 15:52 | 50.02844 | 8.46123 | 841 ft | 167 kts | 71° |
| 2026-04-11 15:52 | 50.03255 | 8.47771 | 630 ft | 161 kts | 71° |
| 2026-04-11 15:53 | 50.03626 | 8.49382 | 387 ft | 154 kts | 71° |
| 2026-04-11 15:53 | 50.03984 | 8.50888 | 328 ft | 140 kts | 69° |
| 2026-04-11 15:53 | 50.04246 | 8.51972 | 354 ft | 75 kts | 69° |
| 2026-04-11 15:53 | 50.04388 | 8.52572 | 358 ft | 45 kts | 73° |
| 2026-04-11 15:54 | 50.04379 | 8.52933 | 360 ft | 28 kts | 99° |
| 2026-04-11 15:54 | 50.04352 | 8.53229 | 366 ft | 28 kts | 94° |
| 2026-04-11 15:54 | 50.04397 | 8.53516 | 379 ft | 28 kts | 78° |
| 2026-04-11 15:54 | 50.04414 | 8.53813 | 380 ft | 28 kts | 84° |
| 2026-04-11 15:55 | 50.04435 | 8.54110 | 380 ft | 28 kts | 84° |
| 2026-04-11 15:55 | 50.04454 | 8.54407 | 376 ft | 28 kts | 89° |
| 2026-04-11 15:55 | 50.04392 | 8.54678 | 371 ft | 22 kts | 131° |
| 2026-04-11 15:55 | 50.04248 | 8.54809 | 362 ft | 26 kts | 160° |
| 2026-04-11 15:56 | 50.04101 | 8.54892 | 355 ft | 7 kts | 159° |
| 2026-04-11 15:56 | 50.04052 | 8.54921 | 364 ft | 8 kts | 159° |
| 2026-04-11 15:56 | 50.03996 | 8.54900 | 366 ft | 13 kts | 226° |
| 2026-04-11 15:56 | 50.03959 | 8.54769 | 361 ft | 13 kts | 253° |
| 2026-04-11 15:57 | 50.04006 | 8.54670 | 353 ft | 11 kts | 339° |
| 2026-04-11 15:57 | 50.04061 | 8.54640 | 357 ft | 8 kts | 340° |
| 2026-04-11 15:57 | 50.04104 | 8.54667 | 363 ft | 8 kts | 64° |
| 2026-04-11 15:57 | 50.04115 | 8.54711 | 358 ft | 4 kts | 69° |
| 2026-04-11 15:58 | 50.04118 | 8.54722 | 358 ft | 0 kts | 69° |